PWSweather.com
Personal Weather Stations
Station Observations
DL5ARK
SonnebergDE

SonnebergDE

Lat: 50.34904861, Lon: 11.18112087

Elevation: 1214

Station Type: Selfmade

http://www.sumbarg.de

High Low Average
Temperature 23.2°F-4.9°C 7.1°F-13.8°C 14.1°F-9.9°C
Dew Point 15.4°F-9.2°C 8.4°F-13.1°C 11.7°F-11.3°C
Winds 12.1 mph 19.5 kmh Calm Calm 3.0 mph ESE4.8 kmh ESE
Wind Gusts 12.2 mph19.6 kmh -- 3.0 mph4.8 kmh
Humidity 78% 55% 66%
Pressure 30.16 in1021.3 mb 30.03 in1016.9 mb -
Precipitation 0.00 in0.0 mm - -
Hour Temp Dew Point Humidity Winds Wind Gusts Pressure Precip Precip Rate Daily Precip Total
12:02 AM 11.9°F-11.2°C 11.1°F-11.6°C 66% 4.3 mph E6.9 kmh E 4.4 mph7.1 kmh 30.08 in1018.6 mb 0.00 in0.0 mm 0.00 in0.0 mm 0.00 in0.0 mm
12:05 AM 11.5°F-11.4°C 11.1°F-11.6°C 66% 0.4 mph E0.6 kmh E 0.4 mph0.6 kmh 30.08 in1018.6 mb 0.00 in0.0 mm 0.00 in0.0 mm 0.00 in0.0 mm
12:08 AM 11.4°F-11.4°C 11.5°F-11.4°C 67% 2.4 mph ESE3.9 kmh ESE 2.4 mph3.9 kmh 30.08 in1018.6 mb 0.00 in0.0 mm 0.00 in0.0 mm 0.00 in0.0 mm
12:11 AM 11.5°F-11.4°C 11.3°F-11.5°C 67% 2.4 mph ESE3.9 kmh ESE 2.4 mph3.9 kmh 30.08 in1018.6 mb 0.00 in0.0 mm 0.00 in0.0 mm 0.00 in0.0 mm
12:14 AM 11.3°F-11.5°C 11.4°F-11.4°C 67% Calm Calm -- 30.08 in1018.6 mb 0.00 in0.0 mm 0.00 in0.0 mm 0.00 in0.0 mm
12:17 AM 11.6°F-11.3°C 10.9°F-11.7°C 67% 3.9 mph ESE6.3 kmh ESE 4.0 mph6.4 kmh 30.08 in1018.6 mb 0.00 in0.0 mm 0.00 in0.0 mm 0.00 in0.0 mm
12:20 AM 11.8°F-11.2°C 11.3°F-11.5°C 67% Calm Calm -- 30.08 in1018.6 mb 0.00 in0.0 mm 0.00 in0.0 mm 0.00 in0.0 mm
12:23 AM 12.0°F-11.1°C 10.9°F-11.7°C 67% 0.4 mph E0.6 kmh E 0.4 mph0.6 kmh 30.08 in1018.6 mb 0.00 in0.0 mm 0.00 in0.0 mm 0.00 in0.0 mm
12:26 AM 11.9°F-11.2°C 10.8°F-11.8°C 67% 1.6 mph ESE2.6 kmh ESE 1.6 mph2.6 kmh 30.07 in1018.3 mb 0.00 in0.0 mm 0.00 in0.0 mm 0.00 in0.0 mm
12:29 AM 11.8°F-11.2°C 10.9°F-11.7°C 67% 0.4 mph E0.6 kmh E 0.4 mph0.6 kmh 30.08 in1018.6 mb 0.00 in0.0 mm 0.00 in0.0 mm 0.00 in0.0 mm
12:32 AM 11.9°F-11.2°C 11.3°F-11.5°C 67% 0.4 mph SSE0.6 kmh SSE 0.4 mph0.6 kmh 30.08 in1018.6 mb 0.00 in0.0 mm 0.00 in0.0 mm 0.00 in0.0 mm
12:35 AM 11.5°F-11.4°C 11.2°F-11.6°C 68% 4.4 mph ESE7.1 kmh ESE 4.5 mph7.2 kmh 30.08 in1018.6 mb 0.00 in0.0 mm 0.00 in0.0 mm 0.00 in0.0 mm
12:38 AM 11.4°F-11.4°C 11.2°F-11.6°C 68% Calm Calm -- 30.08 in1018.6 mb 0.00 in0.0 mm 0.00 in0.0 mm 0.00 in0.0 mm
12:41 AM 11.2°F-11.6°C 11.0°F-11.7°C 68% Calm Calm -- 30.08 in1018.6 mb 0.00 in0.0 mm 0.00 in0.0 mm 0.00 in0.0 mm
12:44 AM 11.3°F-11.5°C 11.1°F-11.6°C 68% Calm Calm -- 30.08 in1018.6 mb 0.00 in0.0 mm 0.00 in0.0 mm 0.00 in0.0 mm
12:47 AM 11.3°F-11.5°C 11.3°F-11.5°C 68% 1.6 mph ESE2.6 kmh ESE 1.6 mph2.6 kmh 30.08 in1018.6 mb 0.00 in0.0 mm 0.00 in0.0 mm 0.00 in0.0 mm
12:50 AM 11.3°F-11.5°C 11.0°F-11.7°C 68% Calm Calm -- 30.08 in1018.6 mb 0.00 in0.0 mm 0.00 in0.0 mm 0.00 in0.0 mm
12:53 AM 11.3°F-11.5°C 11.2°F-11.6°C 68% 3.9 mph E6.3 kmh E 3.9 mph6.3 kmh 30.08 in1018.6 mb 0.00 in0.0 mm 0.00 in0.0 mm 0.00 in0.0 mm
12:56 AM 11.0°F-11.7°C 11.0°F-11.7°C 68% Calm Calm -- 30.08 in1018.6 mb 0.00 in0.0 mm 0.00 in0.0 mm 0.00 in0.0 mm
12:59 AM 11.3°F-11.5°C 10.7°F-11.8°C 68% Calm Calm -- 30.08 in1018.6 mb 0.00 in0.0 mm 0.00 in0.0 mm 0.00 in0.0 mm
01:02 AM 10.9°F-11.7°C 10.9°F-11.7°C 68% Calm Calm -- 30.08 in1018.6 mb 0.00 in0.0 mm 0.00 in0.0 mm 0.00 in0.0 mm
01:05 AM 11.0°F-11.7°C 10.9°F-11.7°C 68% Calm Calm -- 30.09 in1019.0 mb 0.00 in0.0 mm 0.00 in0.0 mm 0.00 in0.0 mm
01:08 AM 11.1°F-11.6°C 11.0°F-11.7°C 68% 1.2 mph ESE1.9 kmh ESE 1.2 mph1.9 kmh 30.09 in1019.0 mb 0.00 in0.0 mm 0.00 in0.0 mm 0.00 in0.0 mm
01:11 AM 11.2°F-11.6°C 11.0°F-11.7°C 68% Calm Calm -- 30.09 in1019.0 mb 0.00 in0.0 mm 0.00 in0.0 mm 0.00 in0.0 mm
01:14 AM 11.0°F-11.7°C 11.3°F-11.5°C 68% Calm Calm -- 30.09 in1019.0 mb 0.00 in0.0 mm 0.00 in0.0 mm 0.00 in0.0 mm
01:17 AM 10.9°F-11.7°C 11.2°F-11.6°C 68% Calm Calm -- 30.09 in1019.0 mb 0.00 in0.0 mm 0.00 in0.0 mm 0.00 in0.0 mm
01:20 AM 10.9°F-11.7°C 11.1°F-11.6°C 68% 0.4 mph E0.6 kmh E 0.4 mph0.6 kmh 30.09 in1019.0 mb 0.00 in0.0 mm 0.00 in0.0 mm 0.00 in0.0 mm
01:23 AM 11.0°F-11.7°C 11.2°F-11.6°C 69% Calm Calm -- 30.09 in1019.0 mb 0.00 in0.0 mm 0.00 in0.0 mm 0.00 in0.0 mm
01:26 AM 10.6°F-11.9°C 11.0°F-11.7°C 68% 4.4 mph ESE7.1 kmh ESE 4.4 mph7.1 kmh 30.09 in1019.0 mb 0.00 in0.0 mm 0.00 in0.0 mm 0.00 in0.0 mm
01:29 AM 10.3°F-12.1°C 11.0°F-11.7°C 69% Calm Calm -- 30.09 in1019.0 mb 0.00 in0.0 mm 0.00 in0.0 mm 0.00 in0.0 mm
01:32 AM 10.2°F-12.1°C 10.8°F-11.8°C 68% Calm Calm -- 30.09 in1019.0 mb 0.00 in0.0 mm 0.00 in0.0 mm 0.00 in0.0 mm
01:35 AM 9.8°F-12.3°C 10.8°F-11.8°C 68% Calm Calm -- 30.09 in1019.0 mb 0.00 in0.0 mm 0.00 in0.0 mm 0.00 in0.0 mm
01:38 AM 10.6°F-11.9°C 10.9°F-11.7°C 69% 0.4 mph ENE0.6 kmh ENE 0.4 mph0.6 kmh 30.10 in1019.3 mb 0.00 in0.0 mm 0.00 in0.0 mm 0.00 in0.0 mm
01:41 AM 10.5°F-11.9°C 10.8°F-11.8°C 69% Calm Calm -- 30.10 in1019.3 mb 0.00 in0.0 mm 0.00 in0.0 mm 0.00 in0.0 mm
01:44 AM 10.5°F-11.9°C 10.9°F-11.7°C 69% Calm Calm -- 30.09 in1019.0 mb 0.00 in0.0 mm 0.00 in0.0 mm 0.00 in0.0 mm
01:47 AM 10.2°F-12.1°C 10.9°F-11.7°C 69% Calm Calm -- 30.09 in1019.0 mb 0.00 in0.0 mm 0.00 in0.0 mm 0.00 in0.0 mm
01:50 AM 10.6°F-11.9°C 10.7°F-11.8°C 69% 4.0 mph SE6.4 kmh SE 4.1 mph6.6 kmh 30.10 in1019.3 mb 0.00 in0.0 mm 0.00 in0.0 mm 0.00 in0.0 mm
01:53 AM 10.5°F-11.9°C 10.9°F-11.7°C 69% Calm Calm -- 30.10 in1019.3 mb 0.00 in0.0 mm 0.00 in0.0 mm 0.00 in0.0 mm
01:56 AM 10.4°F-12.0°C 10.6°F-11.9°C 69% Calm Calm -- 30.10 in1019.3 mb 0.00 in0.0 mm 0.00 in0.0 mm 0.00 in0.0 mm
01:59 AM 10.3°F-12.1°C 10.8°F-11.8°C 69% Calm Calm -- 30.10 in1019.3 mb 0.00 in0.0 mm 0.00 in0.0 mm 0.00 in0.0 mm
02:02 AM 10.1°F-12.2°C 10.7°F-11.8°C 69% Calm Calm -- 30.09 in1019.0 mb 0.00 in0.0 mm 0.00 in0.0 mm 0.00 in0.0 mm
02:05 AM 10.1°F-12.2°C 10.9°F-11.7°C 69% Calm Calm -- 30.10 in1019.3 mb 0.00 in0.0 mm 0.00 in0.0 mm 0.00 in0.0 mm
02:08 AM 10.0°F-12.2°C 10.8°F-11.8°C 70% 0.4 mph ESE0.6 kmh ESE 0.4 mph0.6 kmh 30.09 in1019.0 mb 0.00 in0.0 mm 0.00 in0.0 mm 0.00 in0.0 mm
02:11 AM 9.8°F-12.3°C 10.6°F-11.9°C 69% Calm Calm -- 30.09 in1019.0 mb 0.00 in0.0 mm 0.00 in0.0 mm 0.00 in0.0 mm
02:14 AM 9.7°F-12.4°C 10.9°F-11.7°C 70% Calm Calm -- 30.10 in1019.3 mb 0.00 in0.0 mm 0.00 in0.0 mm 0.00 in0.0 mm
02:17 AM 9.4°F-12.6°C 10.8°F-11.8°C 70% Calm Calm -- 30.10 in1019.3 mb 0.00 in0.0 mm 0.00 in0.0 mm 0.00 in0.0 mm
02:20 AM 9.4°F-12.6°C 10.7°F-11.8°C 69% 2.8 mph E4.5 kmh E 2.8 mph4.5 kmh 30.09 in1019.0 mb 0.00 in0.0 mm 0.00 in0.0 mm 0.00 in0.0 mm
02:23 AM 9.4°F-12.6°C 10.7°F-11.8°C 70% Calm Calm -- 30.09 in1019.0 mb 0.00 in0.0 mm 0.00 in0.0 mm 0.00 in0.0 mm
02:26 AM 9.4°F-12.6°C 10.7°F-11.8°C 70% Calm Calm -- 30.09 in1019.0 mb 0.00 in0.0 mm 0.00 in0.0 mm 0.00 in0.0 mm
02:29 AM 9.1°F-12.7°C 10.7°F-11.8°C 70% Calm Calm -- 30.09 in1019.0 mb 0.00 in0.0 mm 0.00 in0.0 mm 0.00 in0.0 mm
02:32 AM 9.3°F-12.6°C 10.7°F-11.8°C 70% 0.8 mph E1.3 kmh E 0.8 mph1.3 kmh 30.09 in1019.0 mb 0.00 in0.0 mm 0.00 in0.0 mm 0.00 in0.0 mm
02:35 AM 9.6°F-12.4°C 10.5°F-11.9°C 70% Calm Calm -- 30.09 in1019.0 mb 0.00 in0.0 mm 0.00 in0.0 mm 0.00 in0.0 mm
02:38 AM 9.4°F-12.6°C 10.5°F-11.9°C 70% Calm Calm -- 30.08 in1018.6 mb 0.00 in0.0 mm 0.00 in0.0 mm 0.00 in0.0 mm
02:41 AM 9.3°F-12.6°C 10.5°F-11.9°C 70% 0.4 mph NE0.6 kmh NE 0.4 mph0.6 kmh 30.09 in1019.0 mb 0.00 in0.0 mm 0.00 in0.0 mm 0.00 in0.0 mm
02:44 AM 9.5°F-12.5°C 10.3°F-12.1°C 70% 2.4 mph E3.9 kmh E 2.4 mph3.9 kmh 30.09 in1019.0 mb 0.00 in0.0 mm 0.00 in0.0 mm 0.00 in0.0 mm
02:47 AM 9.1°F-12.7°C 10.5°F-11.9°C 71% Calm Calm -- 30.09 in1019.0 mb 0.00 in0.0 mm 0.00 in0.0 mm 0.00 in0.0 mm
02:50 AM 8.9°F-12.8°C 10.7°F-11.8°C 71% Calm Calm -- 30.09 in1019.0 mb 0.00 in0.0 mm 0.00 in0.0 mm 0.00 in0.0 mm
02:53 AM 8.9°F-12.8°C 10.6°F-11.9°C 71% Calm Calm -- 30.09 in1019.0 mb 0.00 in0.0 mm 0.00 in0.0 mm 0.00 in0.0 mm
02:56 AM 8.8°F-12.9°C 10.6°F-11.9°C 71% Calm Calm -- 30.08 in1018.6 mb 0.00 in0.0 mm 0.00 in0.0 mm 0.00 in0.0 mm
02:59 AM 8.7°F-12.9°C 10.4°F-12.0°C 71% Calm Calm -- 30.08 in1018.6 mb 0.00 in0.0 mm 0.00 in0.0 mm 0.00 in0.0 mm
03:02 AM 8.7°F-12.9°C 10.5°F-11.9°C 71% Calm Calm -- 30.08 in1018.6 mb 0.00 in0.0 mm 0.00 in0.0 mm 0.00 in0.0 mm
03:05 AM 8.8°F-12.9°C 10.4°F-12.0°C 71% Calm Calm -- 30.08 in1018.6 mb 0.00 in0.0 mm 0.00 in0.0 mm 0.00 in0.0 mm
03:08 AM 8.8°F-12.9°C 10.1°F-12.2°C 71% Calm Calm -- 30.08 in1018.6 mb 0.00 in0.0 mm 0.00 in0.0 mm 0.00 in0.0 mm
03:11 AM 8.7°F-12.9°C 9.9°F-12.3°C 70% Calm Calm -- 30.08 in1018.6 mb 0.00 in0.0 mm 0.00 in0.0 mm 0.00 in0.0 mm
03:14 AM 8.6°F-13.0°C 10.3°F-12.1°C 71% 2.8 mph NE4.5 kmh NE 2.8 mph4.5 kmh 30.08 in1018.6 mb 0.00 in0.0 mm 0.00 in0.0 mm 0.00 in0.0 mm
03:17 AM 9.1°F-12.7°C 10.0°F-12.2°C 71% Calm Calm -- 30.08 in1018.6 mb 0.00 in0.0 mm 0.00 in0.0 mm 0.00 in0.0 mm
03:20 AM 9.2°F-12.7°C 10.5°F-11.9°C 72% Calm Calm -- 30.09 in1019.0 mb 0.00 in0.0 mm 0.00 in0.0 mm 0.00 in0.0 mm
03:23 AM 9.1°F-12.7°C 10.4°F-12.0°C 71% 2.4 mph E3.9 kmh E 2.4 mph3.9 kmh 30.09 in1019.0 mb 0.00 in0.0 mm 0.00 in0.0 mm 0.00 in0.0 mm
03:26 AM 8.9°F-12.8°C 10.4°F-12.0°C 71% Calm Calm -- 30.09 in1019.0 mb 0.00 in0.0 mm 0.00 in0.0 mm 0.00 in0.0 mm
03:29 AM 8.7°F-12.9°C 9.8°F-12.3°C 71% Calm Calm -- 30.09 in1019.0 mb 0.00 in0.0 mm 0.00 in0.0 mm 0.00 in0.0 mm
03:32 AM 8.6°F-13.0°C 10.0°F-12.2°C 71% Calm Calm -- 30.10 in1019.3 mb 0.00 in0.0 mm 0.00 in0.0 mm 0.00 in0.0 mm
03:35 AM 8.7°F-12.9°C 10.1°F-12.2°C 72% Calm Calm -- 30.09 in1019.0 mb 0.00 in0.0 mm 0.00 in0.0 mm 0.00 in0.0 mm
03:38 AM 9.1°F-12.7°C 10.0°F-12.2°C 71% 1.6 mph NE2.6 kmh NE 1.6 mph2.6 kmh 30.10 in1019.3 mb 0.00 in0.0 mm 0.00 in0.0 mm 0.00 in0.0 mm
03:41 AM 9.1°F-12.7°C 10.0°F-12.2°C 71% Calm Calm -- 30.09 in1019.0 mb 0.00 in0.0 mm 0.00 in0.0 mm 0.00 in0.0 mm
03:44 AM 8.8°F-12.9°C 10.3°F-12.1°C 71% Calm Calm -- 30.09 in1019.0 mb 0.00 in0.0 mm 0.00 in0.0 mm 0.00 in0.0 mm
03:47 AM 8.7°F-12.9°C 9.8°F-12.3°C 71% 1.9 mph ESE3.1 kmh ESE 2.0 mph3.2 kmh 30.09 in1019.0 mb 0.00 in0.0 mm 0.00 in0.0 mm 0.00 in0.0 mm
03:50 AM 8.7°F-12.9°C 10.0°F-12.2°C 71% Calm Calm -- 30.10 in1019.3 mb 0.00 in0.0 mm 0.00 in0.0 mm 0.00 in0.0 mm
03:53 AM 8.9°F-12.8°C 10.1°F-12.2°C 72% Calm Calm -- 30.10 in1019.3 mb 0.00 in0.0 mm 0.00 in0.0 mm 0.00 in0.0 mm
03:56 AM 8.7°F-12.9°C 10.1°F-12.2°C 72% 1.2 mph ESE1.9 kmh ESE 1.2 mph1.9 kmh 30.10 in1019.3 mb 0.00 in0.0 mm 0.00 in0.0 mm 0.00 in0.0 mm
03:59 AM 8.6°F-13.0°C 10.2°F-12.1°C 72% 0.8 mph NNW1.3 kmh NNW 0.8 mph1.3 kmh 30.10 in1019.3 mb 0.00 in0.0 mm 0.00 in0.0 mm 0.00 in0.0 mm
04:02 AM 8.8°F-12.9°C 9.7°F-12.4°C 71% Calm Calm -- 30.10 in1019.3 mb 0.00 in0.0 mm 0.00 in0.0 mm 0.00 in0.0 mm
04:05 AM 8.6°F-13.0°C 9.6°F-12.4°C 72% Calm Calm -- 30.09 in1019.0 mb 0.00 in0.0 mm 0.00 in0.0 mm 0.00 in0.0 mm
04:08 AM 8.6°F-13.0°C 9.6°F-12.4°C 71% Calm Calm -- 30.09 in1019.0 mb 0.00 in0.0 mm 0.00 in0.0 mm 0.00 in0.0 mm
04:11 AM 8.6°F-13.0°C 9.5°F-12.5°C 71% Calm Calm -- 30.10 in1019.3 mb 0.00 in0.0 mm 0.00 in0.0 mm 0.00 in0.0 mm
04:14 AM 8.7°F-12.9°C 9.7°F-12.4°C 72% Calm Calm -- 30.10 in1019.3 mb 0.00 in0.0 mm 0.00 in0.0 mm 0.00 in0.0 mm
04:17 AM 8.4°F-13.1°C 9.8°F-12.3°C 72% Calm Calm -- 30.10 in1019.3 mb 0.00 in0.0 mm 0.00 in0.0 mm 0.00 in0.0 mm
04:20 AM 8.6°F-13.0°C 9.5°F-12.5°C 71% Calm Calm -- 30.09 in1019.0 mb 0.00 in0.0 mm 0.00 in0.0 mm 0.00 in0.0 mm
04:23 AM 8.4°F-13.1°C 9.6°F-12.4°C 72% Calm Calm -- 30.10 in1019.3 mb 0.00 in0.0 mm 0.00 in0.0 mm 0.00 in0.0 mm
04:26 AM 8.5°F-13.1°C 9.6°F-12.4°C 72% Calm Calm -- 30.10 in1019.3 mb 0.00 in0.0 mm 0.00 in0.0 mm 0.00 in0.0 mm
04:29 AM 8.2°F-13.2°C 9.9°F-12.3°C 72% Calm Calm -- 30.10 in1019.3 mb 0.00 in0.0 mm 0.00 in0.0 mm 0.00 in0.0 mm
04:32 AM 8.2°F-13.2°C 9.9°F-12.3°C 72% Calm Calm -- 30.10 in1019.3 mb 0.00 in0.0 mm 0.00 in0.0 mm 0.00 in0.0 mm
04:35 AM 7.8°F-13.4°C 9.5°F-12.5°C 71% 3.6 mph NE5.8 kmh NE 3.7 mph6.0 kmh 30.10 in1019.3 mb 0.00 in0.0 mm 0.00 in0.0 mm 0.00 in0.0 mm
04:38 AM 8.3°F-13.2°C 9.4°F-12.6°C 72% Calm Calm -- 30.10 in1019.3 mb 0.00 in0.0 mm 0.00 in0.0 mm 0.00 in0.0 mm
04:41 AM 8.5°F-13.1°C 9.9°F-12.3°C 72% Calm Calm -- 30.10 in1019.3 mb 0.00 in0.0 mm 0.00 in0.0 mm 0.00 in0.0 mm
04:44 AM 8.6°F-13.0°C 9.5°F-12.5°C 72% 0.4 mph ESE0.6 kmh ESE 0.4 mph0.6 kmh 30.10 in1019.3 mb 0.00 in0.0 mm 0.00 in0.0 mm 0.00 in0.0 mm
04:47 AM 8.6°F-13.0°C 9.3°F-12.6°C 72% Calm Calm -- 30.10 in1019.3 mb 0.00 in0.0 mm 0.00 in0.0 mm 0.00 in0.0 mm
04:50 AM 8.3°F-13.2°C 9.4°F-12.6°C 72% Calm Calm -- 30.10 in1019.3 mb 0.00 in0.0 mm 0.00 in0.0 mm 0.00 in0.0 mm
04:53 AM 8.5°F-13.1°C 9.1°F-12.7°C 72% 0.8 mph E1.3 kmh E 0.8 mph1.3 kmh 30.10 in1019.3 mb 0.00 in0.0 mm 0.00 in0.0 mm 0.00 in0.0 mm
04:56 AM 8.2°F-13.2°C 9.6°F-12.4°C 73% Calm Calm -- 30.10 in1019.3 mb 0.00 in0.0 mm 0.00 in0.0 mm 0.00 in0.0 mm
04:59 AM 8.4°F-13.1°C 9.0°F-12.8°C 73% Calm Calm -- 30.10 in1019.3 mb 0.00 in0.0 mm 0.00 in0.0 mm 0.00 in0.0 mm
05:02 AM 8.0°F-13.3°C 9.6°F-12.4°C 73% Calm Calm -- 30.10 in1019.3 mb 0.00 in0.0 mm 0.00 in0.0 mm 0.00 in0.0 mm
05:05 AM 8.3°F-13.2°C 8.9°F-12.8°C 73% 5.1 mph NE8.2 kmh NE 5.1 mph8.2 kmh 30.10 in1019.3 mb 0.00 in0.0 mm 0.00 in0.0 mm 0.00 in0.0 mm
05:08 AM 8.3°F-13.2°C 9.4°F-12.6°C 73% Calm Calm -- 30.11 in1019.6 mb 0.00 in0.0 mm 0.00 in0.0 mm 0.00 in0.0 mm
05:11 AM 8.0°F-13.3°C 9.9°F-12.3°C 73% Calm Calm -- 30.11 in1019.6 mb 0.00 in0.0 mm 0.00 in0.0 mm 0.00 in0.0 mm
05:14 AM 8.2°F-13.2°C 9.1°F-12.7°C 73% Calm Calm -- 30.11 in1019.6 mb 0.00 in0.0 mm 0.00 in0.0 mm 0.00 in0.0 mm
05:17 AM 8.0°F-13.3°C 9.6°F-12.4°C 73% Calm Calm -- 30.11 in1019.6 mb 0.00 in0.0 mm 0.00 in0.0 mm 0.00 in0.0 mm
05:20 AM 8.4°F-13.1°C 9.2°F-12.7°C 73% Calm Calm -- 30.11 in1019.6 mb 0.00 in0.0 mm 0.00 in0.0 mm 0.00 in0.0 mm
05:23 AM 7.9°F-13.4°C 9.3°F-12.6°C 72% Calm Calm -- 30.11 in1019.6 mb 0.00 in0.0 mm 0.00 in0.0 mm 0.00 in0.0 mm
05:26 AM 8.0°F-13.3°C 9.4°F-12.6°C 73% 1.2 mph ENE1.9 kmh ENE 1.2 mph1.9 kmh 30.11 in1019.6 mb 0.00 in0.0 mm 0.00 in0.0 mm 0.00 in0.0 mm
05:29 AM 7.9°F-13.4°C 9.4°F-12.6°C 73% Calm Calm -- 30.11 in1019.6 mb 0.00 in0.0 mm 0.00 in0.0 mm 0.00 in0.0 mm
05:32 AM 7.9°F-13.4°C 9.7°F-12.4°C 73% Calm Calm -- 30.11 in1019.6 mb 0.00 in0.0 mm 0.00 in0.0 mm 0.00 in0.0 mm
05:35 AM 7.6°F-13.6°C 9.1°F-12.7°C 73% Calm Calm -- 30.11 in1019.6 mb 0.00 in0.0 mm 0.00 in0.0 mm 0.00 in0.0 mm
05:38 AM 7.9°F-13.4°C 9.5°F-12.5°C 73% Calm Calm -- 30.11 in1019.6 mb 0.00 in0.0 mm 0.00 in0.0 mm 0.00 in0.0 mm
05:41 AM 7.6°F-13.6°C 9.5°F-12.5°C 73% Calm Calm -- 30.11 in1019.6 mb 0.00 in0.0 mm 0.00 in0.0 mm 0.00 in0.0 mm
05:44 AM 7.9°F-13.4°C 9.4°F-12.6°C 73% Calm Calm -- 30.11 in1019.6 mb 0.00 in0.0 mm 0.00 in0.0 mm 0.00 in0.0 mm
05:47 AM 7.6°F-13.6°C 9.4°F-12.6°C 73% Calm Calm -- 30.11 in1019.6 mb 0.00 in0.0 mm 0.00 in0.0 mm 0.00 in0.0 mm
05:50 AM 7.8°F-13.4°C 9.0°F-12.8°C 73% Calm Calm -- 30.11 in1019.6 mb 0.00 in0.0 mm 0.00 in0.0 mm 0.00 in0.0 mm
05:53 AM 7.7°F-13.5°C 9.4°F-12.6°C 73% Calm Calm -- 30.11 in1019.6 mb 0.00 in0.0 mm 0.00 in0.0 mm 0.00 in0.0 mm
05:56 AM 7.6°F-13.6°C 8.9°F-12.8°C 73% 3.2 mph E5.1 kmh E 3.2 mph5.1 kmh 30.11 in1019.6 mb 0.00 in0.0 mm 0.00 in0.0 mm 0.00 in0.0 mm
05:59 AM 7.7°F-13.5°C 8.8°F-12.9°C 73% 0.8 mph ESE1.3 kmh ESE 0.8 mph1.3 kmh 30.11 in1019.6 mb 0.00 in0.0 mm 0.00 in0.0 mm 0.00 in0.0 mm
06:02 AM 7.6°F-13.6°C 9.0°F-12.8°C 73% Calm Calm -- 30.11 in1019.6 mb 0.00 in0.0 mm 0.00 in0.0 mm 0.00 in0.0 mm
06:05 AM 7.5°F-13.6°C 8.9°F-12.8°C 72% Calm Calm -- 30.11 in1019.6 mb 0.00 in0.0 mm 0.00 in0.0 mm 0.00 in0.0 mm
06:08 AM 7.1°F-13.8°C 8.7°F-12.9°C 73% Calm Calm -- 30.12 in1020.0 mb 0.00 in0.0 mm 0.00 in0.0 mm 0.00 in0.0 mm
06:11 AM 7.4°F-13.7°C 9.0°F-12.8°C 73% Calm Calm -- 30.12 in1020.0 mb 0.00 in0.0 mm 0.00 in0.0 mm 0.00 in0.0 mm
06:14 AM 7.3°F-13.7°C 8.9°F-12.8°C 73% Calm Calm -- 30.12 in1020.0 mb 0.00 in0.0 mm 0.00 in0.0 mm 0.00 in0.0 mm
06:17 AM 7.6°F-13.6°C 9.1°F-12.7°C 73% Calm Calm -- 30.12 in1020.0 mb 0.00 in0.0 mm 0.00 in0.0 mm 0.00 in0.0 mm
06:20 AM 7.9°F-13.4°C 8.9°F-12.8°C 73% 2.0 mph ESE3.2 kmh ESE 2.0 mph3.2 kmh 30.12 in1020.0 mb 0.00 in0.0 mm 0.00 in0.0 mm 0.00 in0.0 mm
06:23 AM 7.9°F-13.4°C 8.6°F-13.0°C 74% Calm Calm -- 30.12 in1020.0 mb 0.00 in0.0 mm 0.00 in0.0 mm 0.00 in0.0 mm
06:26 AM 8.0°F-13.3°C 9.1°F-12.7°C 75% 5.2 mph E8.4 kmh E 5.3 mph8.5 kmh 30.12 in1020.0 mb 0.00 in0.0 mm 0.00 in0.0 mm 0.00 in0.0 mm
06:29 AM 7.8°F-13.4°C 8.6°F-13.0°C 75% Calm Calm -- 30.12 in1020.0 mb 0.00 in0.0 mm 0.00 in0.0 mm 0.00 in0.0 mm
06:32 AM 8.0°F-13.3°C 9.0°F-12.8°C 76% 4.0 mph SE6.4 kmh SE 4.1 mph6.6 kmh 30.12 in1020.0 mb 0.00 in0.0 mm 0.00 in0.0 mm 0.00 in0.0 mm
06:35 AM 8.2°F-13.2°C 9.3°F-12.6°C 76% 0.4 mph SE0.6 kmh SE 0.4 mph0.6 kmh 30.12 in1020.0 mb 0.00 in0.0 mm 0.00 in0.0 mm 0.00 in0.0 mm
06:38 AM 8.0°F-13.3°C 8.7°F-12.9°C 77% 2.0 mph ESE3.2 kmh ESE 2.0 mph3.2 kmh 30.12 in1020.0 mb 0.00 in0.0 mm 0.00 in0.0 mm 0.00 in0.0 mm
06:41 AM 8.2°F-13.2°C 8.7°F-12.9°C 77% 1.2 mph ESE1.9 kmh ESE 1.2 mph1.9 kmh 30.13 in1020.3 mb 0.00 in0.0 mm 0.00 in0.0 mm 0.00 in0.0 mm
06:44 AM 8.0°F-13.3°C 8.8°F-12.9°C 77% 1.2 mph SE1.9 kmh SE 1.2 mph1.9 kmh 30.13 in1020.3 mb 0.00 in0.0 mm 0.00 in0.0 mm 0.00 in0.0 mm
06:47 AM 7.8°F-13.4°C 8.8°F-12.9°C 77% 3.6 mph E5.8 kmh E 3.7 mph6.0 kmh 30.13 in1020.3 mb 0.00 in0.0 mm 0.00 in0.0 mm 0.00 in0.0 mm
06:50 AM 8.0°F-13.3°C 9.1°F-12.7°C 77% 2.0 mph SE3.2 kmh SE 2.0 mph3.2 kmh 30.12 in1020.0 mb 0.00 in0.0 mm 0.00 in0.0 mm 0.00 in0.0 mm
06:53 AM 8.0°F-13.3°C 9.6°F-12.4°C 77% 6.7 mph ESE10.8 kmh ESE 6.8 mph10.9 kmh 30.13 in1020.3 mb 0.00 in0.0 mm 0.00 in0.0 mm 0.00 in0.0 mm
06:56 AM 7.9°F-13.4°C 9.3°F-12.6°C 77% 2.0 mph SE3.2 kmh SE 2.0 mph3.2 kmh 30.13 in1020.3 mb 0.00 in0.0 mm 0.00 in0.0 mm 0.00 in0.0 mm
06:59 AM 8.0°F-13.3°C 9.5°F-12.5°C 78% 1.6 mph ESE2.6 kmh ESE 1.6 mph2.6 kmh 30.13 in1020.3 mb 0.00 in0.0 mm 0.00 in0.0 mm 0.00 in0.0 mm
07:02 AM 8.2°F-13.2°C 9.7°F-12.4°C 78% 3.6 mph SE5.8 kmh SE 3.7 mph6.0 kmh 30.13 in1020.3 mb 0.00 in0.0 mm 0.00 in0.0 mm 0.00 in0.0 mm
07:05 AM 8.3°F-13.2°C 9.7°F-12.4°C 78% 4.0 mph NNW6.4 kmh NNW 4.0 mph6.4 kmh 30.12 in1020.0 mb 0.00 in0.0 mm 0.00 in0.0 mm 0.00 in0.0 mm
07:08 AM 8.3°F-13.2°C 8.8°F-12.9°C 78% 2.0 mph SE3.2 kmh SE 2.0 mph3.2 kmh 30.12 in1020.0 mb 0.00 in0.0 mm 0.00 in0.0 mm 0.00 in0.0 mm
07:11 AM 8.2°F-13.2°C 9.6°F-12.4°C 78% Calm Calm -- 30.12 in1020.0 mb 0.00 in0.0 mm 0.00 in0.0 mm 0.00 in0.0 mm
07:14 AM 8.3°F-13.2°C 9.2°F-12.7°C 78% Calm Calm -- 30.12 in1020.0 mb 0.00 in0.0 mm 0.00 in0.0 mm 0.00 in0.0 mm
07:17 AM 8.2°F-13.2°C 9.8°F-12.3°C 77% 4.4 mph E7.1 kmh E 4.5 mph7.2 kmh 30.12 in1020.0 mb 0.00 in0.0 mm 0.00 in0.0 mm 0.00 in0.0 mm
07:20 AM 8.4°F-13.1°C 8.8°F-12.9°C 77% 5.5 mph SE8.9 kmh SE 5.5 mph8.9 kmh 30.13 in1020.3 mb 0.00 in0.0 mm 0.00 in0.0 mm 0.00 in0.0 mm
07:23 AM 8.5°F-13.1°C 8.9°F-12.8°C 77% 2.8 mph SE4.5 kmh SE 2.8 mph4.5 kmh 30.13 in1020.3 mb 0.00 in0.0 mm 0.00 in0.0 mm 0.00 in0.0 mm
07:26 AM 8.5°F-13.1°C 10.2°F-12.1°C 78% 6.0 mph NNW9.7 kmh NNW 6.0 mph9.7 kmh 30.12 in1020.0 mb 0.00 in0.0 mm 0.00 in0.0 mm 0.00 in0.0 mm
07:29 AM 8.4°F-13.1°C 9.9°F-12.3°C 77% Calm Calm -- 30.13 in1020.3 mb 0.00 in0.0 mm 0.00 in0.0 mm 0.00 in0.0 mm
07:32 AM 8.5°F-13.1°C 9.5°F-12.5°C 76% 4.7 mph SE7.6 kmh SE 4.8 mph7.7 kmh 30.12 in1020.0 mb 0.00 in0.0 mm 0.00 in0.0 mm 0.00 in0.0 mm
07:35 AM 8.7°F-12.9°C 9.0°F-12.8°C 76% 7.3 mph E11.7 kmh E 7.3 mph11.7 kmh 30.13 in1020.3 mb 0.00 in0.0 mm 0.00 in0.0 mm 0.00 in0.0 mm
07:38 AM 8.9°F-12.8°C 9.8°F-12.3°C 76% 3.2 mph E5.1 kmh E 3.2 mph5.1 kmh 30.13 in1020.3 mb 0.00 in0.0 mm 0.00 in0.0 mm 0.00 in0.0 mm
07:41 AM 9.1°F-12.7°C 9.0°F-12.8°C 77% 7.3 mph SE11.7 kmh SE 7.3 mph11.7 kmh 30.13 in1020.3 mb 0.00 in0.0 mm 0.00 in0.0 mm 0.00 in0.0 mm
07:44 AM 9.1°F-12.7°C 9.6°F-12.4°C 76% 1.2 mph SE1.9 kmh SE 1.2 mph1.9 kmh 30.13 in1020.3 mb 0.00 in0.0 mm 0.00 in0.0 mm 0.00 in0.0 mm
07:47 AM 9.1°F-12.7°C 9.8°F-12.3°C 76% 10.1 mph SE16.3 kmh SE 10.2 mph16.4 kmh 30.13 in1020.3 mb 0.00 in0.0 mm 0.00 in0.0 mm 0.00 in0.0 mm
07:50 AM 9.1°F-12.7°C 8.6°F-13.0°C 76% 7.2 mph E11.6 kmh E 7.2 mph11.6 kmh 30.13 in1020.3 mb 0.00 in0.0 mm 0.00 in0.0 mm 0.00 in0.0 mm
07:53 AM 9.4°F-12.6°C 10.1°F-12.2°C 77% Calm Calm -- 30.13 in1020.3 mb 0.00 in0.0 mm 0.00 in0.0 mm 0.00 in0.0 mm
07:56 AM 9.4°F-12.6°C 9.7°F-12.4°C 75% 0.8 mph SE1.3 kmh SE 0.8 mph1.3 kmh 30.13 in1020.3 mb 0.00 in0.0 mm 0.00 in0.0 mm 0.00 in0.0 mm
07:59 AM 9.6°F-12.4°C 9.6°F-12.4°C 76% Calm Calm -- 30.13 in1020.3 mb 0.00 in0.0 mm 0.00 in0.0 mm 0.00 in0.0 mm
08:02 AM 9.5°F-12.5°C 9.3°F-12.6°C 75% 0.4 mph E0.6 kmh E 0.4 mph0.6 kmh 30.13 in1020.3 mb 0.00 in0.0 mm 0.00 in0.0 mm 0.00 in0.0 mm
08:05 AM 9.6°F-12.4°C 10.1°F-12.2°C 76% 1.2 mph SE1.9 kmh SE 1.2 mph1.9 kmh 30.13 in1020.3 mb 0.00 in0.0 mm 0.00 in0.0 mm 0.00 in0.0 mm
08:08 AM 10.0°F-12.2°C 9.9°F-12.3°C 75% Calm Calm -- 30.14 in1020.7 mb 0.00 in0.0 mm 0.00 in0.0 mm 0.00 in0.0 mm
08:11 AM 9.8°F-12.3°C 9.7°F-12.4°C 75% 2.4 mph NNW3.9 kmh NNW 2.4 mph3.9 kmh 30.13 in1020.3 mb 0.00 in0.0 mm 0.00 in0.0 mm 0.00 in0.0 mm
08:14 AM 10.1°F-12.2°C 10.1°F-12.2°C 75% Calm Calm -- 30.13 in1020.3 mb 0.00 in0.0 mm 0.00 in0.0 mm 0.00 in0.0 mm
08:17 AM 10.1°F-12.2°C 10.3°F-12.1°C 75% Calm Calm -- 30.13 in1020.3 mb 0.00 in0.0 mm 0.00 in0.0 mm 0.00 in0.0 mm
08:20 AM 10.1°F-12.2°C 9.6°F-12.4°C 75% 0.8 mph E1.3 kmh E 0.8 mph1.3 kmh 30.13 in1020.3 mb 0.00 in0.0 mm 0.00 in0.0 mm 0.00 in0.0 mm
08:23 AM 10.2°F-12.1°C 10.0°F-12.2°C 75% 6.0 mph ESE9.7 kmh ESE 6.1 mph9.8 kmh 30.13 in1020.3 mb 0.00 in0.0 mm 0.00 in0.0 mm 0.00 in0.0 mm
08:26 AM 10.3°F-12.1°C 9.8°F-12.3°C 75% 5.2 mph SE8.4 kmh SE 5.3 mph8.5 kmh 30.13 in1020.3 mb 0.00 in0.0 mm 0.00 in0.0 mm 0.00 in0.0 mm
08:29 AM 10.4°F-12.0°C 9.4°F-12.6°C 75% 1.2 mph E1.9 kmh E 1.2 mph1.9 kmh 30.13 in1020.3 mb 0.00 in0.0 mm 0.00 in0.0 mm 0.00 in0.0 mm
08:32 AM 10.5°F-11.9°C 10.3°F-12.1°C 75% 4.4 mph ESE7.1 kmh ESE 4.5 mph7.2 kmh 30.13 in1020.3 mb 0.00 in0.0 mm 0.00 in0.0 mm 0.00 in0.0 mm
08:35 AM 10.5°F-11.9°C 9.8°F-12.3°C 74% 0.8 mph E1.3 kmh E 0.8 mph1.3 kmh 30.13 in1020.3 mb 0.00 in0.0 mm 0.00 in0.0 mm 0.00 in0.0 mm
08:38 AM 10.7°F-11.8°C 10.4°F-12.0°C 75% 4.0 mph ESE6.4 kmh ESE 4.0 mph6.4 kmh 30.13 in1020.3 mb 0.00 in0.0 mm 0.00 in0.0 mm 0.00 in0.0 mm
08:41 AM 10.7°F-11.8°C 10.8°F-11.8°C 75% Calm Calm -- 30.13 in1020.3 mb 0.00 in0.0 mm 0.00 in0.0 mm 0.00 in0.0 mm
08:44 AM 11.0°F-11.7°C 10.5°F-11.9°C 74% Calm Calm -- 30.13 in1020.3 mb 0.00 in0.0 mm 0.00 in0.0 mm 0.00 in0.0 mm
08:47 AM 11.2°F-11.6°C 10.5°F-11.9°C 74% 0.4 mph SE0.6 kmh SE 0.4 mph0.6 kmh 30.13 in1020.3 mb 0.00 in0.0 mm 0.00 in0.0 mm 0.00 in0.0 mm
08:50 AM 11.4°F-11.4°C 10.5°F-11.9°C 74% 2.4 mph E3.9 kmh E 2.4 mph3.9 kmh 30.13 in1020.3 mb 0.00 in0.0 mm 0.00 in0.0 mm 0.00 in0.0 mm
08:53 AM 11.9°F-11.2°C 10.5°F-11.9°C 74% 4.4 mph SE7.1 kmh SE 4.5 mph7.2 kmh 30.13 in1020.3 mb 0.00 in0.0 mm 0.00 in0.0 mm 0.00 in0.0 mm
08:56 AM 12.0°F-11.1°C 10.3°F-12.1°C 74% Calm Calm -- 30.13 in1020.3 mb 0.00 in0.0 mm 0.00 in0.0 mm 0.00 in0.0 mm
08:59 AM 12.2°F-11.0°C 11.1°F-11.6°C 74% 0.4 mph ESE0.6 kmh ESE 0.4 mph0.6 kmh 30.13 in1020.3 mb 0.00 in0.0 mm 0.00 in0.0 mm 0.00 in0.0 mm
09:02 AM 12.3°F-10.9°C 10.9°F-11.7°C 73% 0.4 mph ESE0.6 kmh ESE 0.4 mph0.6 kmh 30.14 in1020.7 mb 0.00 in0.0 mm 0.00 in0.0 mm 0.00 in0.0 mm
09:05 AM 12.2°F-11.0°C 11.4°F-11.4°C 73% 2.4 mph E3.9 kmh E 2.4 mph3.9 kmh 30.14 in1020.7 mb 0.00 in0.0 mm 0.00 in0.0 mm 0.00 in0.0 mm
09:08 AM 12.2°F-11.0°C 10.0°F-12.2°C 71% 2.0 mph SE3.2 kmh SE 2.0 mph3.2 kmh 30.14 in1020.7 mb 0.00 in0.0 mm 0.00 in0.0 mm 0.00 in0.0 mm
09:11 AM 11.6°F-11.3°C 8.7°F-12.9°C 70% 10.5 mph SE16.9 kmh SE 10.6 mph17.1 kmh 30.14 in1020.7 mb 0.00 in0.0 mm 0.00 in0.0 mm 0.00 in0.0 mm
09:14 AM 11.4°F-11.4°C 8.4°F-13.1°C 70% 6.3 mph SE10.1 kmh SE 6.4 mph10.3 kmh 30.14 in1020.7 mb 0.00 in0.0 mm 0.00 in0.0 mm 0.00 in0.0 mm
09:17 AM 11.5°F-11.4°C 9.2°F-12.7°C 71% 2.3 mph ESE3.7 kmh ESE 2.4 mph3.9 kmh 30.14 in1020.7 mb 0.00 in0.0 mm 0.00 in0.0 mm 0.00 in0.0 mm
09:20 AM 11.9°F-11.2°C 9.0°F-12.8°C 71% 4.0 mph S6.4 kmh S 4.1 mph6.6 kmh 30.14 in1020.7 mb 0.00 in0.0 mm 0.00 in0.0 mm 0.00 in0.0 mm
09:23 AM 11.9°F-11.2°C 9.3°F-12.6°C 70% 3.2 mph E5.1 kmh E 3.2 mph5.1 kmh 30.14 in1020.7 mb 0.00 in0.0 mm 0.00 in0.0 mm 0.00 in0.0 mm
09:26 AM 12.1°F-11.1°C 10.5°F-11.9°C 71% 1.2 mph ESE1.9 kmh ESE 1.2 mph1.9 kmh 30.14 in1020.7 mb 0.00 in0.0 mm 0.00 in0.0 mm 0.00 in0.0 mm
09:29 AM 12.1°F-11.1°C 10.4°F-12.0°C 71% Calm Calm -- 30.14 in1020.7 mb 0.00 in0.0 mm 0.00 in0.0 mm 0.00 in0.0 mm
09:32 AM 12.2°F-11.0°C 10.4°F-12.0°C 70% Calm Calm -- 30.14 in1020.7 mb 0.00 in0.0 mm 0.00 in0.0 mm 0.00 in0.0 mm
09:35 AM 12.9°F-10.6°C 10.2°F-12.1°C 70% Calm Calm -- 30.14 in1020.7 mb 0.00 in0.0 mm 0.00 in0.0 mm 0.00 in0.0 mm
09:38 AM 12.8°F-10.7°C 10.3°F-12.1°C 69% 1.2 mph SE1.9 kmh SE 1.2 mph1.9 kmh 30.14 in1020.7 mb 0.00 in0.0 mm 0.00 in0.0 mm 0.00 in0.0 mm
09:41 AM 13.1°F-10.5°C 9.9°F-12.3°C 69% 2.4 mph E3.9 kmh E 2.4 mph3.9 kmh 30.14 in1020.7 mb 0.00 in0.0 mm 0.00 in0.0 mm 0.00 in0.0 mm
09:44 AM 13.7°F-10.2°C 10.2°F-12.1°C 70% 8.0 mph E12.9 kmh E 8.1 mph13.0 kmh 30.15 in1021.0 mb 0.00 in0.0 mm 0.00 in0.0 mm 0.00 in0.0 mm
09:47 AM 14.2°F-9.9°C 11.2°F-11.6°C 70% 2.0 mph ESE3.2 kmh ESE 2.0 mph3.2 kmh 30.14 in1020.7 mb 0.00 in0.0 mm 0.00 in0.0 mm 0.00 in0.0 mm
09:50 AM 14.0°F-10.0°C 10.3°F-12.1°C 68% 7.7 mph ESE12.4 kmh ESE 7.7 mph12.4 kmh 30.14 in1020.7 mb 0.00 in0.0 mm 0.00 in0.0 mm 0.00 in0.0 mm
09:53 AM 14.1°F-9.9°C 10.4°F-12.0°C 68% 1.6 mph SE2.6 kmh SE 1.6 mph2.6 kmh 30.14 in1020.7 mb 0.00 in0.0 mm 0.00 in0.0 mm 0.00 in0.0 mm
09:56 AM 14.9°F-9.5°C 11.2°F-11.6°C 70% 2.4 mph E3.9 kmh E 2.4 mph3.9 kmh 30.14 in1020.7 mb 0.00 in0.0 mm 0.00 in0.0 mm 0.00 in0.0 mm
09:59 AM 14.6°F-9.7°C 11.3°F-11.5°C 68% 0.8 mph NE1.3 kmh NE 0.8 mph1.3 kmh 30.14 in1020.7 mb 0.00 in0.0 mm 0.00 in0.0 mm 0.00 in0.0 mm
10:02 AM 13.7°F-10.2°C 10.6°F-11.9°C 66% 9.5 mph ESE15.3 kmh ESE 9.6 mph15.4 kmh 30.14 in1020.7 mb 0.00 in0.0 mm 0.00 in0.0 mm 0.00 in0.0 mm
10:05 AM 14.5°F-9.7°C 10.4°F-12.0°C 67% 5.2 mph E8.4 kmh E 5.3 mph8.5 kmh 30.14 in1020.7 mb 0.00 in0.0 mm 0.00 in0.0 mm 0.00 in0.0 mm
10:08 AM 14.3°F-9.8°C 11.2°F-11.6°C 68% 0.8 mph ESE1.3 kmh ESE 0.8 mph1.3 kmh 30.15 in1021.0 mb 0.00 in0.0 mm 0.00 in0.0 mm 0.00 in0.0 mm
10:11 AM 14.6°F-9.7°C 11.2°F-11.6°C 68% 4.4 mph ESE7.1 kmh ESE 4.4 mph7.1 kmh 30.14 in1020.7 mb 0.00 in0.0 mm 0.00 in0.0 mm 0.00 in0.0 mm
10:14 AM 14.1°F-9.9°C 10.7°F-11.8°C 66% 2.8 mph SE4.5 kmh SE 2.8 mph4.5 kmh 30.14 in1020.7 mb 0.00 in0.0 mm 0.00 in0.0 mm 0.00 in0.0 mm
10:17 AM 15.7°F-9.1°C 11.6°F-11.3°C 68% 7.3 mph E11.7 kmh E 7.5 mph12.1 kmh 30.14 in1020.7 mb 0.00 in0.0 mm 0.00 in0.0 mm 0.00 in0.0 mm
10:20 AM 15.4°F-9.2°C 11.9°F-11.2°C 67% 4.0 mph SSE6.4 kmh SSE 4.1 mph6.6 kmh 30.14 in1020.7 mb 0.00 in0.0 mm 0.00 in0.0 mm 0.00 in0.0 mm
10:23 AM 15.5°F-9.2°C 12.5°F-10.8°C 67% 0.4 mph E0.6 kmh E 0.4 mph0.6 kmh 30.14 in1020.7 mb 0.00 in0.0 mm 0.00 in0.0 mm 0.00 in0.0 mm
10:26 AM 15.5°F-9.2°C 12.1°F-11.1°C 65% 4.0 mph E6.4 kmh E 4.0 mph6.4 kmh 30.14 in1020.7 mb 0.00 in0.0 mm 0.00 in0.0 mm 0.00 in0.0 mm
10:29 AM 16.9°F-8.4°C 12.7°F-10.7°C 67% Calm Calm -- 30.15 in1021.0 mb 0.00 in0.0 mm 0.00 in0.0 mm 0.00 in0.0 mm
10:32 AM 15.1°F-9.4°C 12.7°F-10.7°C 66% 8.6 mph ENE13.8 kmh ENE 8.8 mph14.2 kmh 30.14 in1020.7 mb 0.00 in0.0 mm 0.00 in0.0 mm 0.00 in0.0 mm
10:35 AM 16.1°F-8.8°C 13.0°F-10.6°C 66% 4.0 mph SE6.4 kmh SE 4.0 mph6.4 kmh 30.14 in1020.7 mb 0.00 in0.0 mm 0.00 in0.0 mm 0.00 in0.0 mm
10:38 AM 16.9°F-8.4°C 13.0°F-10.6°C 65% Calm Calm -- 30.15 in1021.0 mb 0.00 in0.0 mm 0.00 in0.0 mm 0.00 in0.0 mm
10:41 AM 16.5°F-8.6°C 12.7°F-10.7°C 64% 3.2 mph E5.1 kmh E 3.3 mph5.3 kmh 30.15 in1021.0 mb 0.00 in0.0 mm 0.00 in0.0 mm 0.00 in0.0 mm
10:44 AM 16.6°F-8.6°C 13.1°F-10.5°C 64% 1.2 mph ENE1.9 kmh ENE 1.2 mph1.9 kmh 30.14 in1020.7 mb 0.00 in0.0 mm 0.00 in0.0 mm 0.00 in0.0 mm
10:47 AM 16.5°F-8.6°C 13.0°F-10.6°C 64% 0.8 mph SE1.3 kmh SE 0.8 mph1.3 kmh 30.14 in1020.7 mb 0.00 in0.0 mm 0.00 in0.0 mm 0.00 in0.0 mm
10:50 AM 16.5°F-8.6°C 12.5°F-10.8°C 64% 3.2 mph ESE5.1 kmh ESE 3.3 mph5.3 kmh 30.14 in1020.7 mb 0.00 in0.0 mm 0.00 in0.0 mm 0.00 in0.0 mm
10:53 AM 15.9°F-8.9°C 11.5°F-11.4°C 62% 1.2 mph SE1.9 kmh SE 1.2 mph1.9 kmh 30.14 in1020.7 mb 0.00 in0.0 mm 0.00 in0.0 mm 0.00 in0.0 mm
10:56 AM 16.1°F-8.8°C 11.3°F-11.5°C 62% 3.6 mph ESE5.8 kmh ESE 3.6 mph5.8 kmh 30.14 in1020.7 mb 0.00 in0.0 mm 0.00 in0.0 mm 0.00 in0.0 mm
10:59 AM 16.7°F-8.5°C 10.8°F-11.8°C 61% 5.9 mph SE9.5 kmh SE 5.9 mph9.5 kmh 30.15 in1021.0 mb 0.00 in0.0 mm 0.00 in0.0 mm 0.00 in0.0 mm
11:02 AM 16.0°F-8.9°C 11.1°F-11.6°C 61% 8.3 mph SE13.4 kmh SE 8.4 mph13.5 kmh 30.14 in1020.7 mb 0.00 in0.0 mm 0.00 in0.0 mm 0.00 in0.0 mm
11:05 AM 16.0°F-8.9°C 10.0°F-12.2°C 60% 3.6 mph SE5.8 kmh SE 3.6 mph5.8 kmh 30.14 in1020.7 mb 0.00 in0.0 mm 0.00 in0.0 mm 0.00 in0.0 mm
11:08 AM 16.0°F-8.9°C 10.3°F-12.1°C 61% 5.6 mph NNW9.0 kmh NNW 5.6 mph9.0 kmh 30.14 in1020.7 mb 0.00 in0.0 mm 0.00 in0.0 mm 0.00 in0.0 mm
11:11 AM 16.4°F-8.7°C 10.5°F-11.9°C 62% 8.0 mph ESE12.9 kmh ESE 8.0 mph12.9 kmh 30.14 in1020.7 mb 0.00 in0.0 mm 0.00 in0.0 mm 0.00 in0.0 mm
11:14 AM 17.4°F-8.1°C 11.3°F-11.5°C 63% 5.6 mph ESE9.0 kmh ESE 5.6 mph9.0 kmh 30.15 in1021.0 mb 0.00 in0.0 mm 0.00 in0.0 mm 0.00 in0.0 mm
11:17 AM 16.7°F-8.5°C 12.3°F-10.9°C 63% 0.4 mph E0.6 kmh E 0.4 mph0.6 kmh 30.15 in1021.0 mb 0.00 in0.0 mm 0.00 in0.0 mm 0.00 in0.0 mm
11:20 AM 16.7°F-8.5°C 12.7°F-10.7°C 63% 0.4 mph NE0.6 kmh NE 0.4 mph0.6 kmh 30.15 in1021.0 mb 0.00 in0.0 mm 0.00 in0.0 mm 0.00 in0.0 mm
11:23 AM 16.8°F-8.4°C 12.3°F-10.9°C 62% Calm Calm -- 30.16 in1021.3 mb 0.00 in0.0 mm 0.00 in0.0 mm 0.00 in0.0 mm
11:26 AM 17.4°F-8.1°C 12.5°F-10.8°C 62% 1.6 mph E2.6 kmh E 1.6 mph2.6 kmh 30.15 in1021.0 mb 0.00 in0.0 mm 0.00 in0.0 mm 0.00 in0.0 mm
11:29 AM 16.9°F-8.4°C 12.5°F-10.8°C 61% 1.2 mph S1.9 kmh S 1.2 mph1.9 kmh 30.15 in1021.0 mb 0.00 in0.0 mm 0.00 in0.0 mm 0.00 in0.0 mm
11:32 AM 17.4°F-8.1°C 12.3°F-10.9°C 60% 5.7 mph ESE9.2 kmh ESE 5.7 mph9.2 kmh 30.15 in1021.0 mb 0.00 in0.0 mm 0.00 in0.0 mm 0.00 in0.0 mm
11:35 AM 17.7°F-7.9°C 12.8°F-10.7°C 61% Calm Calm -- 30.15 in1021.0 mb 0.00 in0.0 mm 0.00 in0.0 mm 0.00 in0.0 mm
11:38 AM 17.8°F-7.9°C 12.5°F-10.8°C 60% 0.4 mph SE0.6 kmh SE 0.4 mph0.6 kmh 30.14 in1020.7 mb 0.00 in0.0 mm 0.00 in0.0 mm 0.00 in0.0 mm
11:41 AM 17.7°F-7.9°C 11.6°F-11.3°C 59% 7.6 mph SE12.2 kmh SE 7.6 mph12.2 kmh 30.14 in1020.7 mb 0.00 in0.0 mm 0.00 in0.0 mm 0.00 in0.0 mm
11:44 AM 17.4°F-8.1°C 11.7°F-11.3°C 59% 1.2 mph ESE1.9 kmh ESE 1.2 mph1.9 kmh 30.14 in1020.7 mb 0.00 in0.0 mm 0.00 in0.0 mm 0.00 in0.0 mm
11:47 AM 17.6°F-8.0°C 11.9°F-11.2°C 59% 4.7 mph E7.6 kmh E 4.7 mph7.6 kmh 30.15 in1021.0 mb 0.00 in0.0 mm 0.00 in0.0 mm 0.00 in0.0 mm
11:50 AM 17.8°F-7.9°C 12.0°F-11.1°C 59% 4.4 mph NNW7.1 kmh NNW 4.4 mph7.1 kmh 30.14 in1020.7 mb 0.00 in0.0 mm 0.00 in0.0 mm 0.00 in0.0 mm
11:53 AM 18.4°F-7.6°C 12.2°F-11.0°C 59% 4.0 mph S6.4 kmh S 4.1 mph6.6 kmh 30.15 in1021.0 mb 0.00 in0.0 mm 0.00 in0.0 mm 0.00 in0.0 mm
11:56 AM 18.1°F-7.7°C 12.1°F-11.1°C 58% 7.9 mph SE12.7 kmh SE 7.9 mph12.7 kmh 30.14 in1020.7 mb 0.00 in0.0 mm 0.00 in0.0 mm 0.00 in0.0 mm
11:59 AM 18.6°F-7.4°C 12.4°F-10.9°C 59% 6.0 mph NNW9.7 kmh NNW 6.1 mph9.8 kmh 30.15 in1021.0 mb 0.00 in0.0 mm 0.00 in0.0 mm 0.00 in0.0 mm
12:02 PM 18.2°F-7.7°C 12.5°F-10.8°C 58% 3.6 mph SSE5.8 kmh SSE 3.7 mph6.0 kmh 30.15 in1021.0 mb 0.00 in0.0 mm 0.00 in0.0 mm 0.00 in0.0 mm
12:05 PM 18.6°F-7.4°C 12.4°F-10.9°C 58% 4.8 mph ESE7.7 kmh ESE 4.8 mph7.7 kmh 30.15 in1021.0 mb 0.00 in0.0 mm 0.00 in0.0 mm 0.00 in0.0 mm
12:08 PM 18.3°F-7.6°C 12.2°F-11.0°C 57% 1.6 mph SSE2.6 kmh SSE 1.6 mph2.6 kmh 30.15 in1021.0 mb 0.00 in0.0 mm 0.00 in0.0 mm 0.00 in0.0 mm
12:11 PM 19.0°F-7.2°C 12.8°F-10.7°C 58% 0.4 mph ENE0.6 kmh ENE 0.4 mph0.6 kmh 30.14 in1020.7 mb 0.00 in0.0 mm 0.00 in0.0 mm 0.00 in0.0 mm
12:14 PM 19.0°F-7.2°C 12.7°F-10.7°C 58% 2.0 mph ESE3.2 kmh ESE 2.0 mph3.2 kmh 30.14 in1020.7 mb 0.00 in0.0 mm 0.00 in0.0 mm 0.00 in0.0 mm
12:17 PM 18.6°F-7.4°C 11.7°F-11.3°C 57% 5.1 mph E8.2 kmh E 5.2 mph8.4 kmh 30.14 in1020.7 mb 0.00 in0.0 mm 0.00 in0.0 mm 0.00 in0.0 mm
12:20 PM 18.6°F-7.4°C 12.2°F-11.0°C 57% 4.8 mph SE7.7 kmh SE 4.8 mph7.7 kmh 30.14 in1020.7 mb 0.00 in0.0 mm 0.00 in0.0 mm 0.00 in0.0 mm
12:23 PM 18.6°F-7.4°C 11.9°F-11.2°C 57% 4.0 mph ESE6.4 kmh ESE 4.1 mph6.6 kmh 30.14 in1020.7 mb 0.00 in0.0 mm 0.00 in0.0 mm 0.00 in0.0 mm
12:26 PM 19.5°F-6.9°C 12.4°F-10.9°C 58% 9.0 mph ESE14.5 kmh ESE 9.0 mph14.5 kmh 30.14 in1020.7 mb 0.00 in0.0 mm 0.00 in0.0 mm 0.00 in0.0 mm
12:29 PM 19.0°F-7.2°C 12.3°F-10.9°C 57% 3.6 mph SE5.8 kmh SE 3.6 mph5.8 kmh 30.14 in1020.7 mb 0.00 in0.0 mm 0.00 in0.0 mm 0.00 in0.0 mm
12:32 PM 19.0°F-7.2°C 11.8°F-11.2°C 57% 3.5 mph SE5.6 kmh SE 3.6 mph5.8 kmh 30.14 in1020.7 mb 0.00 in0.0 mm 0.00 in0.0 mm 0.00 in0.0 mm
12:35 PM 19.3°F-7.1°C 12.6°F-10.8°C 58% 5.6 mph SE9.0 kmh SE 5.7 mph9.2 kmh 30.14 in1020.7 mb 0.00 in0.0 mm 0.00 in0.0 mm 0.00 in0.0 mm
12:38 PM 18.8°F-7.3°C 12.3°F-10.9°C 57% 6.5 mph SE10.5 kmh SE 6.5 mph10.5 kmh 30.14 in1020.7 mb 0.00 in0.0 mm 0.00 in0.0 mm 0.00 in0.0 mm
12:41 PM 19.3°F-7.1°C 12.6°F-10.8°C 58% 3.6 mph SE5.8 kmh SE 3.6 mph5.8 kmh 30.14 in1020.7 mb 0.00 in0.0 mm 0.00 in0.0 mm 0.00 in0.0 mm
12:44 PM 19.2°F-7.1°C 12.4°F-10.9°C 58% 4.4 mph SE7.1 kmh SE 4.4 mph7.1 kmh 30.13 in1020.3 mb 0.00 in0.0 mm 0.00 in0.0 mm 0.00 in0.0 mm
12:47 PM 19.4°F-7.0°C 12.7°F-10.7°C 58% 3.2 mph SE5.1 kmh SE 3.3 mph5.3 kmh 30.13 in1020.3 mb 0.00 in0.0 mm 0.00 in0.0 mm 0.00 in0.0 mm
12:53 PM 19.3°F-7.1°C 12.9°F-10.6°C 58% 3.2 mph E5.1 kmh E 3.2 mph5.1 kmh 30.13 in1020.3 mb 0.00 in0.0 mm 0.00 in0.0 mm 0.00 in0.0 mm
12:56 PM 19.5°F-6.9°C 12.4°F-10.9°C 58% 5.6 mph NNW9.0 kmh NNW 5.6 mph9.0 kmh 30.13 in1020.3 mb 0.00 in0.0 mm 0.00 in0.0 mm 0.00 in0.0 mm
12:59 PM 18.7°F-7.4°C 12.5°F-10.8°C 58% 3.2 mph SE5.1 kmh SE 3.3 mph5.3 kmh 30.13 in1020.3 mb 0.00 in0.0 mm 0.00 in0.0 mm 0.00 in0.0 mm
01:02 PM 19.0°F-7.2°C 13.1°F-10.5°C 58% 2.8 mph SE4.5 kmh SE 2.8 mph4.5 kmh 30.13 in1020.3 mb 0.00 in0.0 mm 0.00 in0.0 mm 0.00 in0.0 mm
01:05 PM 18.7°F-7.4°C 12.2°F-11.0°C 58% 2.0 mph S3.2 kmh S 2.0 mph3.2 kmh 30.13 in1020.3 mb 0.00 in0.0 mm 0.00 in0.0 mm 0.00 in0.0 mm
01:08 PM 18.6°F-7.4°C 12.6°F-10.8°C 58% 5.3 mph ESE8.5 kmh ESE 5.3 mph8.5 kmh 30.13 in1020.3 mb 0.00 in0.0 mm 0.00 in0.0 mm 0.00 in0.0 mm
01:11 PM 19.2°F-7.1°C 12.9°F-10.6°C 58% 4.0 mph SE6.4 kmh SE 4.0 mph6.4 kmh 30.13 in1020.3 mb 0.00 in0.0 mm 0.00 in0.0 mm 0.00 in0.0 mm
01:14 PM 18.6°F-7.4°C 12.0°F-11.1°C 58% 8.3 mph SSE13.4 kmh SSE 8.3 mph13.4 kmh 30.13 in1020.3 mb 0.00 in0.0 mm 0.00 in0.0 mm 0.00 in0.0 mm
01:17 PM 19.0°F-7.2°C 12.4°F-10.9°C 58% 8.8 mph SE14.2 kmh SE 8.9 mph14.3 kmh 30.13 in1020.3 mb 0.00 in0.0 mm 0.00 in0.0 mm 0.00 in0.0 mm
01:20 PM 18.7°F-7.4°C 13.0°F-10.6°C 58% 1.6 mph ESE2.6 kmh ESE 1.6 mph2.6 kmh 30.13 in1020.3 mb 0.00 in0.0 mm 0.00 in0.0 mm 0.00 in0.0 mm
01:23 PM 19.4°F-7.0°C 13.1°F-10.5°C 59% 4.8 mph E7.7 kmh E 4.9 mph7.9 kmh 30.13 in1020.3 mb 0.00 in0.0 mm 0.00 in0.0 mm 0.00 in0.0 mm
01:26 PM 20.3°F-6.5°C 13.5°F-10.3°C 59% 4.8 mph ESE7.7 kmh ESE 4.9 mph7.9 kmh 30.12 in1020.0 mb 0.00 in0.0 mm 0.00 in0.0 mm 0.00 in0.0 mm
01:29 PM 20.9°F-6.2°C 13.8°F-10.1°C 58% 3.6 mph SSE5.8 kmh SSE 3.7 mph6.0 kmh 30.11 in1019.6 mb 0.00 in0.0 mm 0.00 in0.0 mm 0.00 in0.0 mm
01:32 PM 20.1°F-6.6°C 12.7°F-10.7°C 57% 6.3 mph E10.1 kmh E 6.3 mph10.1 kmh 30.12 in1020.0 mb 0.00 in0.0 mm 0.00 in0.0 mm 0.00 in0.0 mm
01:35 PM 20.5°F-6.4°C 13.0°F-10.6°C 57% 12.1 mph SE19.5 kmh SE 12.2 mph19.6 kmh 30.12 in1020.0 mb 0.00 in0.0 mm 0.00 in0.0 mm 0.00 in0.0 mm
01:38 PM 20.6°F-6.3°C 12.8°F-10.7°C 57% 5.1 mph SE8.2 kmh SE 5.2 mph8.4 kmh 30.12 in1020.0 mb 0.00 in0.0 mm 0.00 in0.0 mm 0.00 in0.0 mm
01:41 PM 20.5°F-6.4°C 13.5°F-10.3°C 56% 4.8 mph E7.7 kmh E 4.8 mph7.7 kmh 30.11 in1019.6 mb 0.00 in0.0 mm 0.00 in0.0 mm 0.00 in0.0 mm
01:44 PM 20.6°F-6.3°C 14.3°F-9.8°C 58% 0.8 mph E1.3 kmh E 0.8 mph1.3 kmh 30.11 in1019.6 mb 0.00 in0.0 mm 0.00 in0.0 mm 0.00 in0.0 mm
01:47 PM 19.5°F-6.9°C 14.0°F-10.0°C 56% 2.8 mph ESE4.5 kmh ESE 2.9 mph4.7 kmh 30.11 in1019.6 mb 0.00 in0.0 mm 0.00 in0.0 mm 0.00 in0.0 mm
01:50 PM 21.0°F-6.1°C 14.1°F-9.9°C 57% 6.5 mph ESE10.5 kmh ESE 6.5 mph10.5 kmh 30.12 in1020.0 mb 0.00 in0.0 mm 0.00 in0.0 mm 0.00 in0.0 mm
01:53 PM 20.5°F-6.4°C 13.7°F-10.2°C 56% 8.1 mph ESE13.0 kmh ESE 8.1 mph13.0 kmh 30.12 in1020.0 mb 0.00 in0.0 mm 0.00 in0.0 mm 0.00 in0.0 mm
01:56 PM 21.0°F-6.1°C 13.7°F-10.2°C 56% 2.4 mph ENE3.9 kmh ENE 2.4 mph3.9 kmh 30.11 in1019.6 mb 0.00 in0.0 mm 0.00 in0.0 mm 0.00 in0.0 mm
01:59 PM 19.9°F-6.7°C 13.5°F-10.3°C 56% 3.1 mph ESE5.0 kmh ESE 3.1 mph5.0 kmh 30.12 in1020.0 mb 0.00 in0.0 mm 0.00 in0.0 mm 0.00 in0.0 mm
02:05 PM 21.2°F-6.0°C 14.4°F-9.8°C 58% 0.8 mph E1.3 kmh E 0.8 mph1.3 kmh 30.12 in1020.0 mb 0.00 in0.0 mm 0.00 in0.0 mm 0.00 in0.0 mm
02:08 PM 21.3°F-5.9°C 14.4°F-9.8°C 56% Calm Calm -- 30.11 in1019.6 mb 0.00 in0.0 mm 0.00 in0.0 mm 0.00 in0.0 mm
02:11 PM 20.4°F-6.4°C 13.8°F-10.1°C 55% 1.6 mph SE2.6 kmh SE 1.6 mph2.6 kmh 30.12 in1020.0 mb 0.00 in0.0 mm 0.00 in0.0 mm 0.00 in0.0 mm
02:14 PM 20.6°F-6.3°C 14.0°F-10.0°C 56% 0.4 mph NNW0.6 kmh NNW 0.4 mph0.6 kmh 30.11 in1019.6 mb 0.00 in0.0 mm 0.00 in0.0 mm 0.00 in0.0 mm
02:17 PM 21.7°F-5.7°C 14.0°F-10.0°C 56% 4.3 mph W6.9 kmh W 4.3 mph6.9 kmh 30.11 in1019.6 mb 0.00 in0.0 mm 0.00 in0.0 mm 0.00 in0.0 mm
02:20 PM 22.2°F-5.4°C 14.1°F-9.9°C 56% 4.9 mph SE7.9 kmh SE 4.9 mph7.9 kmh 30.11 in1019.6 mb 0.00 in0.0 mm 0.00 in0.0 mm 0.00 in0.0 mm
02:23 PM 21.5°F-5.8°C 13.8°F-10.1°C 55% 10.1 mph ESE16.3 kmh ESE 10.2 mph16.4 kmh 30.11 in1019.6 mb 0.00 in0.0 mm 0.00 in0.0 mm 0.00 in0.0 mm
02:26 PM 20.8°F-6.2°C 13.3°F-10.4°C 55% 2.4 mph E3.9 kmh E 2.4 mph3.9 kmh 30.11 in1019.6 mb 0.00 in0.0 mm 0.00 in0.0 mm 0.00 in0.0 mm
02:29 PM 20.3°F-6.5°C 13.6°F-10.2°C 55% 2.8 mph SE4.5 kmh SE 2.8 mph4.5 kmh 30.11 in1019.6 mb 0.00 in0.0 mm 0.00 in0.0 mm 0.00 in0.0 mm
02:32 PM 20.2°F-6.6°C 13.5°F-10.3°C 56% 6.5 mph ESE10.5 kmh ESE 6.5 mph10.5 kmh 30.11 in1019.6 mb 0.00 in0.0 mm 0.00 in0.0 mm 0.00 in0.0 mm
02:35 PM 20.4°F-6.4°C 14.2°F-9.9°C 57% 4.0 mph ESE6.4 kmh ESE 4.0 mph6.4 kmh 30.12 in1020.0 mb 0.00 in0.0 mm 0.00 in0.0 mm 0.00 in0.0 mm
02:38 PM 21.4°F-5.9°C 14.4°F-9.8°C 58% 1.2 mph SE1.9 kmh SE 1.2 mph1.9 kmh 30.12 in1020.0 mb 0.00 in0.0 mm 0.00 in0.0 mm 0.00 in0.0 mm
02:41 PM 21.1°F-6.1°C 14.4°F-9.8°C 57% 3.1 mph E5.0 kmh E 3.2 mph5.1 kmh 30.13 in1020.3 mb 0.00 in0.0 mm 0.00 in0.0 mm 0.00 in0.0 mm
02:44 PM 20.4°F-6.4°C 13.8°F-10.1°C 57% 3.6 mph SE5.8 kmh SE 3.7 mph6.0 kmh 30.13 in1020.3 mb 0.00 in0.0 mm 0.00 in0.0 mm 0.00 in0.0 mm
02:47 PM 20.5°F-6.4°C 13.8°F-10.1°C 58% 2.4 mph SE3.9 kmh SE 2.4 mph3.9 kmh 30.13 in1020.3 mb 0.00 in0.0 mm 0.00 in0.0 mm 0.00 in0.0 mm
02:50 PM 21.4°F-5.9°C 14.8°F-9.6°C 59% 4.0 mph E6.4 kmh E 4.1 mph6.6 kmh 30.13 in1020.3 mb 0.00 in0.0 mm 0.00 in0.0 mm 0.00 in0.0 mm
02:53 PM 21.4°F-5.9°C 14.5°F-9.7°C 58% 3.6 mph SE5.8 kmh SE 3.7 mph6.0 kmh 30.12 in1020.0 mb 0.00 in0.0 mm 0.00 in0.0 mm 0.00 in0.0 mm
02:56 PM 20.8°F-6.2°C 14.1°F-9.9°C 57% 5.7 mph E9.2 kmh E 5.7 mph9.2 kmh 30.11 in1019.6 mb 0.00 in0.0 mm 0.00 in0.0 mm 0.00 in0.0 mm
02:59 PM 20.4°F-6.4°C 14.2°F-9.9°C 57% 0.8 mph SE1.3 kmh SE 0.8 mph1.3 kmh 30.12 in1020.0 mb 0.00 in0.0 mm 0.00 in0.0 mm 0.00 in0.0 mm
03:02 PM 20.8°F-6.2°C 14.9°F-9.5°C 58% Calm Calm -- 30.12 in1020.0 mb 0.00 in0.0 mm 0.00 in0.0 mm 0.00 in0.0 mm
03:05 PM 20.3°F-6.5°C 13.9°F-10.1°C 57% 6.0 mph ESE9.7 kmh ESE 6.0 mph9.7 kmh 30.12 in1020.0 mb 0.00 in0.0 mm 0.00 in0.0 mm 0.00 in0.0 mm
03:08 PM 20.9°F-6.2°C 14.4°F-9.8°C 57% 6.5 mph ESE10.5 kmh ESE 6.5 mph10.5 kmh 30.12 in1020.0 mb 0.00 in0.0 mm 0.00 in0.0 mm 0.00 in0.0 mm
03:11 PM 20.9°F-6.2°C 13.7°F-10.2°C 56% 0.8 mph SSE1.3 kmh SSE 0.8 mph1.3 kmh 30.11 in1019.6 mb 0.00 in0.0 mm 0.00 in0.0 mm 0.00 in0.0 mm
03:14 PM 20.5°F-6.4°C 13.8°F-10.1°C 57% 4.0 mph SE6.4 kmh SE 4.1 mph6.6 kmh 30.12 in1020.0 mb 0.00 in0.0 mm 0.00 in0.0 mm 0.00 in0.0 mm
03:17 PM 21.2°F-6.0°C 13.5°F-10.3°C 57% 3.5 mph SE5.6 kmh SE 3.6 mph5.8 kmh 30.11 in1019.6 mb 0.00 in0.0 mm 0.00 in0.0 mm 0.00 in0.0 mm
03:20 PM 22.4°F-5.3°C 15.2°F-9.3°C 59% Calm Calm -- 30.11 in1019.6 mb 0.00 in0.0 mm 0.00 in0.0 mm 0.00 in0.0 mm
03:23 PM 22.9°F-5.1°C 15.2°F-9.3°C 57% 3.2 mph E5.1 kmh E 3.3 mph5.3 kmh 30.11 in1019.6 mb 0.00 in0.0 mm 0.00 in0.0 mm 0.00 in0.0 mm
03:26 PM 23.2°F-4.9°C 15.4°F-9.2°C 57% 3.2 mph E5.1 kmh E 3.3 mph5.3 kmh 30.11 in1019.6 mb 0.00 in0.0 mm 0.00 in0.0 mm 0.00 in0.0 mm
03:29 PM 23.2°F-4.9°C 15.4°F-9.2°C 56% 2.0 mph E3.2 kmh E 2.0 mph3.2 kmh 30.10 in1019.3 mb 0.00 in0.0 mm 0.00 in0.0 mm 0.00 in0.0 mm
03:32 PM 21.5°F-5.8°C 14.5°F-9.7°C 55% 7.2 mph SE11.6 kmh SE 7.2 mph11.6 kmh 30.10 in1019.3 mb 0.00 in0.0 mm 0.00 in0.0 mm 0.00 in0.0 mm
03:35 PM 20.6°F-6.3°C 14.8°F-9.6°C 57% 7.1 mph ESE11.4 kmh ESE 7.2 mph11.6 kmh 30.10 in1019.3 mb 0.00 in0.0 mm 0.00 in0.0 mm 0.00 in0.0 mm
03:38 PM 20.5°F-6.4°C 14.8°F-9.6°C 58% 2.4 mph ENE3.9 kmh ENE 2.4 mph3.9 kmh 30.11 in1019.6 mb 0.00 in0.0 mm 0.00 in0.0 mm 0.00 in0.0 mm
03:41 PM 20.6°F-6.3°C 15.0°F-9.4°C 58% 1.2 mph NNW1.9 kmh NNW 1.2 mph1.9 kmh 30.11 in1019.6 mb 0.00 in0.0 mm 0.00 in0.0 mm 0.00 in0.0 mm
03:44 PM 20.2°F-6.6°C 14.7°F-9.6°C 58% 5.6 mph NNW9.0 kmh NNW 5.6 mph9.0 kmh 30.10 in1019.3 mb 0.00 in0.0 mm 0.00 in0.0 mm 0.00 in0.0 mm
03:47 PM 20.2°F-6.6°C 14.9°F-9.5°C 58% 7.8 mph NNW12.6 kmh NNW 7.9 mph12.7 kmh 30.10 in1019.3 mb 0.00 in0.0 mm 0.00 in0.0 mm 0.00 in0.0 mm
03:50 PM 20.1°F-6.6°C 14.8°F-9.6°C 58% Calm Calm -- 30.10 in1019.3 mb 0.00 in0.0 mm 0.00 in0.0 mm 0.00 in0.0 mm
03:53 PM 19.6°F-6.9°C 14.7°F-9.6°C 58% 5.2 mph E8.4 kmh E 5.3 mph8.5 kmh 30.10 in1019.3 mb 0.00 in0.0 mm 0.00 in0.0 mm 0.00 in0.0 mm
03:56 PM 19.4°F-7.0°C 14.8°F-9.6°C 59% Calm Calm -- 30.10 in1019.3 mb 0.00 in0.0 mm 0.00 in0.0 mm 0.00 in0.0 mm
03:59 PM 19.5°F-6.9°C 14.5°F-9.7°C 58% Calm Calm -- 30.11 in1019.6 mb 0.00 in0.0 mm 0.00 in0.0 mm 0.00 in0.0 mm
04:02 PM 19.6°F-6.9°C 15.3°F-9.3°C 59% Calm Calm -- 30.10 in1019.3 mb 0.00 in0.0 mm 0.00 in0.0 mm 0.00 in0.0 mm
04:05 PM 19.7°F-6.8°C 15.1°F-9.4°C 59% 0.8 mph E1.3 kmh E 0.8 mph1.3 kmh 30.10 in1019.3 mb 0.00 in0.0 mm 0.00 in0.0 mm 0.00 in0.0 mm
04:08 PM 19.4°F-7.0°C 14.6°F-9.7°C 58% 4.4 mph E7.1 kmh E 4.4 mph7.1 kmh 30.10 in1019.3 mb 0.00 in0.0 mm 0.00 in0.0 mm 0.00 in0.0 mm
04:11 PM 19.9°F-6.7°C 15.1°F-9.4°C 59% 3.6 mph E5.8 kmh E 3.7 mph6.0 kmh 30.10 in1019.3 mb 0.00 in0.0 mm 0.00 in0.0 mm 0.00 in0.0 mm
04:14 PM 20.0°F-6.7°C 14.8°F-9.6°C 59% Calm Calm -- 30.10 in1019.3 mb 0.00 in0.0 mm 0.00 in0.0 mm 0.00 in0.0 mm
04:17 PM 20.2°F-6.6°C 15.1°F-9.4°C 59% 5.6 mph ESE9.0 kmh ESE 5.7 mph9.2 kmh 30.10 in1019.3 mb 0.00 in0.0 mm 0.00 in0.0 mm 0.00 in0.0 mm
04:20 PM 20.2°F-6.6°C 14.8°F-9.6°C 58% 3.2 mph SE5.1 kmh SE 3.2 mph5.1 kmh 30.10 in1019.3 mb 0.00 in0.0 mm 0.00 in0.0 mm 0.00 in0.0 mm
04:23 PM 20.4°F-6.4°C 15.0°F-9.4°C 59% 0.8 mph E1.3 kmh E 0.8 mph1.3 kmh 30.09 in1019.0 mb 0.00 in0.0 mm 0.00 in0.0 mm 0.00 in0.0 mm
04:26 PM 20.8°F-6.2°C 15.2°F-9.3°C 59% 1.2 mph ENE1.9 kmh ENE 1.2 mph1.9 kmh 30.10 in1019.3 mb 0.00 in0.0 mm 0.00 in0.0 mm 0.00 in0.0 mm
04:29 PM 20.5°F-6.4°C 15.0°F-9.4°C 58% 6.4 mph E10.3 kmh E 6.4 mph10.3 kmh 30.09 in1019.0 mb 0.00 in0.0 mm 0.00 in0.0 mm 0.00 in0.0 mm
04:32 PM 20.5°F-6.4°C 15.0°F-9.4°C 58% 4.0 mph NE6.4 kmh NE 4.1 mph6.6 kmh 30.09 in1019.0 mb 0.00 in0.0 mm 0.00 in0.0 mm 0.00 in0.0 mm
04:35 PM 20.5°F-6.4°C 14.5°F-9.7°C 58% 0.8 mph E1.3 kmh E 0.8 mph1.3 kmh 30.08 in1018.6 mb 0.00 in0.0 mm 0.00 in0.0 mm 0.00 in0.0 mm
04:38 PM 20.5°F-6.4°C 14.8°F-9.6°C 57% 4.4 mph ESE7.1 kmh ESE 4.4 mph7.1 kmh 30.09 in1019.0 mb 0.00 in0.0 mm 0.00 in0.0 mm 0.00 in0.0 mm
04:41 PM 20.1°F-6.6°C 15.0°F-9.4°C 58% 2.0 mph ESE3.2 kmh ESE 2.0 mph3.2 kmh 30.09 in1019.0 mb 0.00 in0.0 mm 0.00 in0.0 mm 0.00 in0.0 mm
04:44 PM 19.7°F-6.8°C 15.1°F-9.4°C 58% 2.4 mph NE3.9 kmh NE 2.4 mph3.9 kmh 30.09 in1019.0 mb 0.00 in0.0 mm 0.00 in0.0 mm 0.00 in0.0 mm
04:47 PM 19.5°F-6.9°C 15.2°F-9.3°C 58% 3.2 mph SE5.1 kmh SE 3.2 mph5.1 kmh 30.09 in1019.0 mb 0.00 in0.0 mm 0.00 in0.0 mm 0.00 in0.0 mm
04:50 PM 19.3°F-7.1°C 14.7°F-9.6°C 58% 4.4 mph E7.1 kmh E 4.4 mph7.1 kmh 30.09 in1019.0 mb 0.00 in0.0 mm 0.00 in0.0 mm 0.00 in0.0 mm
04:53 PM 19.4°F-7.0°C 14.6°F-9.7°C 59% 2.8 mph ESE4.5 kmh ESE 2.9 mph4.7 kmh 30.09 in1019.0 mb 0.00 in0.0 mm 0.00 in0.0 mm 0.00 in0.0 mm
04:56 PM 19.3°F-7.1°C 15.0°F-9.4°C 59% Calm Calm -- 30.08 in1018.6 mb 0.00 in0.0 mm 0.00 in0.0 mm 0.00 in0.0 mm
04:59 PM 19.1°F-7.2°C 15.1°F-9.4°C 59% 1.2 mph E1.9 kmh E 1.2 mph1.9 kmh 30.08 in1018.6 mb 0.00 in0.0 mm 0.00 in0.0 mm 0.00 in0.0 mm
05:02 PM 19.1°F-7.2°C 14.9°F-9.5°C 59% 0.4 mph NNW0.6 kmh NNW 0.4 mph0.6 kmh 30.08 in1018.6 mb 0.00 in0.0 mm 0.00 in0.0 mm 0.00 in0.0 mm
05:05 PM 19.0°F-7.2°C 14.9°F-9.5°C 59% 0.4 mph ESE0.6 kmh ESE 0.4 mph0.6 kmh 30.08 in1018.6 mb 0.00 in0.0 mm 0.00 in0.0 mm 0.00 in0.0 mm
05:08 PM 18.7°F-7.4°C 14.9°F-9.5°C 58% 0.8 mph ESE1.3 kmh ESE 0.8 mph1.3 kmh 30.08 in1018.6 mb 0.00 in0.0 mm 0.00 in0.0 mm 0.00 in0.0 mm
05:11 PM 18.7°F-7.4°C 14.5°F-9.7°C 59% 1.6 mph ESE2.6 kmh ESE 1.6 mph2.6 kmh 30.07 in1018.3 mb 0.00 in0.0 mm 0.00 in0.0 mm 0.00 in0.0 mm
05:14 PM 18.7°F-7.4°C 15.2°F-9.3°C 60% 0.4 mph ESE0.6 kmh ESE 0.4 mph0.6 kmh 30.07 in1018.3 mb 0.00 in0.0 mm 0.00 in0.0 mm 0.00 in0.0 mm
05:17 PM 18.7°F-7.4°C 14.6°F-9.7°C 59% Calm Calm -- 30.08 in1018.6 mb 0.00 in0.0 mm 0.00 in0.0 mm 0.00 in0.0 mm
05:20 PM 18.6°F-7.4°C 14.7°F-9.6°C 60% 1.6 mph ESE2.6 kmh ESE 1.6 mph2.6 kmh 30.08 in1018.6 mb 0.00 in0.0 mm 0.00 in0.0 mm 0.00 in0.0 mm
05:23 PM 18.5°F-7.5°C 15.0°F-9.4°C 60% 2.8 mph ESE4.5 kmh ESE 2.8 mph4.5 kmh 30.08 in1018.6 mb 0.00 in0.0 mm 0.00 in0.0 mm 0.00 in0.0 mm
05:26 PM 18.5°F-7.5°C 14.4°F-9.8°C 59% 0.4 mph SE0.6 kmh SE 0.4 mph0.6 kmh 30.08 in1018.6 mb 0.00 in0.0 mm 0.00 in0.0 mm 0.00 in0.0 mm
05:29 PM 18.3°F-7.6°C 14.9°F-9.5°C 60% Calm Calm -- 30.08 in1018.6 mb 0.00 in0.0 mm 0.00 in0.0 mm 0.00 in0.0 mm
05:32 PM 18.4°F-7.6°C 14.4°F-9.8°C 60% 5.1 mph SE8.2 kmh SE 5.1 mph8.2 kmh 30.08 in1018.6 mb 0.00 in0.0 mm 0.00 in0.0 mm 0.00 in0.0 mm
05:35 PM 18.4°F-7.6°C 14.1°F-9.9°C 60% 6.1 mph SE9.8 kmh SE 6.1 mph9.8 kmh 30.08 in1018.6 mb 0.00 in0.0 mm 0.00 in0.0 mm 0.00 in0.0 mm
05:38 PM 18.1°F-7.7°C 14.4°F-9.8°C 60% 4.0 mph S6.4 kmh S 4.1 mph6.6 kmh 30.08 in1018.6 mb 0.00 in0.0 mm 0.00 in0.0 mm 0.00 in0.0 mm
05:41 PM 18.2°F-7.7°C 13.9°F-10.1°C 59% 6.4 mph SE10.3 kmh SE 6.4 mph10.3 kmh 30.08 in1018.6 mb 0.00 in0.0 mm 0.00 in0.0 mm 0.00 in0.0 mm
05:44 PM 17.9°F-7.8°C 13.9°F-10.1°C 60% 2.0 mph SSE3.2 kmh SSE 2.0 mph3.2 kmh 30.09 in1019.0 mb 0.00 in0.0 mm 0.00 in0.0 mm 0.00 in0.0 mm
05:47 PM 17.8°F-7.9°C 13.5°F-10.3°C 59% 5.5 mph SSE8.9 kmh SSE 5.6 mph9.0 kmh 30.09 in1019.0 mb 0.00 in0.0 mm 0.00 in0.0 mm 0.00 in0.0 mm
05:50 PM 17.7°F-7.9°C 13.3°F-10.4°C 60% 3.9 mph NNW6.3 kmh NNW 4.0 mph6.4 kmh 30.08 in1018.6 mb 0.00 in0.0 mm 0.00 in0.0 mm 0.00 in0.0 mm
05:53 PM 17.6°F-8.0°C 13.3°F-10.4°C 60% 4.8 mph SE7.7 kmh SE 4.9 mph7.9 kmh 30.08 in1018.6 mb 0.00 in0.0 mm 0.00 in0.0 mm 0.00 in0.0 mm
05:56 PM 17.7°F-7.9°C 12.6°F-10.8°C 59% 6.8 mph SE10.9 kmh SE 6.9 mph11.1 kmh 30.08 in1018.6 mb 0.00 in0.0 mm 0.00 in0.0 mm 0.00 in0.0 mm
05:59 PM 17.4°F-8.1°C 13.0°F-10.6°C 60% 5.1 mph SSE8.2 kmh SSE 5.1 mph8.2 kmh 30.09 in1019.0 mb 0.00 in0.0 mm 0.00 in0.0 mm 0.00 in0.0 mm
06:02 PM 17.4°F-8.1°C 12.8°F-10.7°C 59% 5.9 mph SSE9.5 kmh SSE 6.0 mph9.7 kmh 30.08 in1018.6 mb 0.00 in0.0 mm 0.00 in0.0 mm 0.00 in0.0 mm
06:05 PM 17.3°F-8.2°C 12.7°F-10.7°C 60% 8.0 mph SE12.9 kmh SE 8.0 mph12.9 kmh 30.08 in1018.6 mb 0.00 in0.0 mm 0.00 in0.0 mm 0.00 in0.0 mm
06:08 PM 17.2°F-8.2°C 12.6°F-10.8°C 60% 8.1 mph SSE13.0 kmh SSE 8.1 mph13.0 kmh 30.08 in1018.6 mb 0.00 in0.0 mm 0.00 in0.0 mm 0.00 in0.0 mm
06:11 PM 17.0°F-8.3°C 12.7°F-10.7°C 61% 8.8 mph SE14.2 kmh SE 8.9 mph14.3 kmh 30.09 in1019.0 mb 0.00 in0.0 mm 0.00 in0.0 mm 0.00 in0.0 mm
06:14 PM 16.9°F-8.4°C 12.8°F-10.7°C 60% 7.2 mph SSE11.6 kmh SSE 7.3 mph11.7 kmh 30.10 in1019.3 mb 0.00 in0.0 mm 0.00 in0.0 mm 0.00 in0.0 mm
06:17 PM 16.9°F-8.4°C 12.8°F-10.7°C 60% 4.3 mph SSE6.9 kmh SSE 4.4 mph7.1 kmh 30.10 in1019.3 mb 0.00 in0.0 mm 0.00 in0.0 mm 0.00 in0.0 mm
06:20 PM 16.9°F-8.4°C 12.3°F-10.9°C 61% 5.2 mph SE8.4 kmh SE 5.3 mph8.5 kmh 30.09 in1019.0 mb 0.00 in0.0 mm 0.00 in0.0 mm 0.00 in0.0 mm
06:23 PM 16.5°F-8.6°C 12.8°F-10.7°C 61% 5.2 mph SE8.4 kmh SE 5.3 mph8.5 kmh 30.09 in1019.0 mb 0.00 in0.0 mm 0.00 in0.0 mm 0.00 in0.0 mm
06:26 PM 16.4°F-8.7°C 13.1°F-10.5°C 61% 3.6 mph SE5.8 kmh SE 3.7 mph6.0 kmh 30.10 in1019.3 mb 0.00 in0.0 mm 0.00 in0.0 mm 0.00 in0.0 mm
06:29 PM 16.4°F-8.7°C 12.9°F-10.6°C 61% 6.4 mph SSE10.3 kmh SSE 6.5 mph10.5 kmh 30.10 in1019.3 mb 0.00 in0.0 mm 0.00 in0.0 mm 0.00 in0.0 mm
06:32 PM 16.4°F-8.7°C 12.5°F-10.8°C 61% 3.2 mph NNW5.1 kmh NNW 3.3 mph5.3 kmh 30.10 in1019.3 mb 0.00 in0.0 mm 0.00 in0.0 mm 0.00 in0.0 mm
06:35 PM 16.3°F-8.7°C 12.8°F-10.7°C 62% 7.3 mph SSE11.7 kmh SSE 7.3 mph11.7 kmh 30.10 in1019.3 mb 0.00 in0.0 mm 0.00 in0.0 mm 0.00 in0.0 mm
06:38 PM 15.9°F-8.9°C 12.9°F-10.6°C 62% 2.4 mph SE3.9 kmh SE 2.4 mph3.9 kmh 30.10 in1019.3 mb 0.00 in0.0 mm 0.00 in0.0 mm 0.00 in0.0 mm
06:41 PM 16.0°F-8.9°C 12.4°F-10.9°C 62% 8.0 mph SE12.9 kmh SE 8.1 mph13.0 kmh 30.10 in1019.3 mb 0.00 in0.0 mm 0.00 in0.0 mm 0.00 in0.0 mm
06:44 PM 16.1°F-8.8°C 12.7°F-10.7°C 62% Calm Calm -- 30.10 in1019.3 mb 0.00 in0.0 mm 0.00 in0.0 mm 0.00 in0.0 mm
06:47 PM 15.8°F-9.0°C 12.8°F-10.7°C 62% 2.0 mph SE3.2 kmh SE 2.0 mph3.2 kmh 30.10 in1019.3 mb 0.00 in0.0 mm 0.00 in0.0 mm 0.00 in0.0 mm
06:50 PM 15.7°F-9.1°C 12.8°F-10.7°C 62% 2.0 mph SE3.2 kmh SE 2.0 mph3.2 kmh 30.10 in1019.3 mb 0.00 in0.0 mm 0.00 in0.0 mm 0.00 in0.0 mm
06:53 PM 15.4°F-9.2°C 13.0°F-10.6°C 62% Calm Calm -- 30.10 in1019.3 mb 0.00 in0.0 mm 0.00 in0.0 mm 0.00 in0.0 mm
06:56 PM 15.1°F-9.4°C 13.3°F-10.4°C 62% 1.2 mph SE1.9 kmh SE 1.2 mph1.9 kmh 30.10 in1019.3 mb 0.00 in0.0 mm 0.00 in0.0 mm 0.00 in0.0 mm
06:59 PM 14.8°F-9.6°C 13.0°F-10.6°C 63% 3.2 mph SE5.1 kmh SE 3.2 mph5.1 kmh 30.10 in1019.3 mb 0.00 in0.0 mm 0.00 in0.0 mm 0.00 in0.0 mm
07:02 PM 14.9°F-9.5°C 13.1°F-10.5°C 63% Calm Calm -- 30.10 in1019.3 mb 0.00 in0.0 mm 0.00 in0.0 mm 0.00 in0.0 mm
07:05 PM 15.1°F-9.4°C 13.0°F-10.6°C 63% Calm Calm -- 30.10 in1019.3 mb 0.00 in0.0 mm 0.00 in0.0 mm 0.00 in0.0 mm
07:08 PM 15.2°F-9.3°C 12.7°F-10.7°C 62% 5.3 mph SE8.5 kmh SE 5.3 mph8.5 kmh 30.10 in1019.3 mb 0.00 in0.0 mm 0.00 in0.0 mm 0.00 in0.0 mm
07:11 PM 15.2°F-9.3°C 12.5°F-10.8°C 63% 2.7 mph SSE4.3 kmh SSE 2.8 mph4.5 kmh 30.10 in1019.3 mb 0.00 in0.0 mm 0.00 in0.0 mm 0.00 in0.0 mm
07:14 PM 14.9°F-9.5°C 13.0°F-10.6°C 63% 0.8 mph SE1.3 kmh SE 0.8 mph1.3 kmh 30.10 in1019.3 mb 0.00 in0.0 mm 0.00 in0.0 mm 0.00 in0.0 mm
07:17 PM 15.6°F-9.1°C 12.7°F-10.7°C 62% 0.4 mph SE0.6 kmh SE 0.4 mph0.6 kmh 30.10 in1019.3 mb 0.00 in0.0 mm 0.00 in0.0 mm 0.00 in0.0 mm
07:20 PM 15.0°F-9.4°C 12.9°F-10.6°C 63% Calm Calm -- 30.10 in1019.3 mb 0.00 in0.0 mm 0.00 in0.0 mm 0.00 in0.0 mm
07:23 PM 15.1°F-9.4°C 12.6°F-10.8°C 63% 0.4 mph SE0.6 kmh SE 0.4 mph0.6 kmh 30.10 in1019.3 mb 0.00 in0.0 mm 0.00 in0.0 mm 0.00 in0.0 mm
07:26 PM 15.0°F-9.4°C 12.9°F-10.6°C 63% Calm Calm -- 30.10 in1019.3 mb 0.00 in0.0 mm 0.00 in0.0 mm 0.00 in0.0 mm
07:29 PM 14.9°F-9.5°C 12.8°F-10.7°C 63% Calm Calm -- 30.10 in1019.3 mb 0.00 in0.0 mm 0.00 in0.0 mm 0.00 in0.0 mm
07:32 PM 14.9°F-9.5°C 12.8°F-10.7°C 63% 4.4 mph E7.1 kmh E 4.4 mph7.1 kmh 30.10 in1019.3 mb 0.00 in0.0 mm 0.00 in0.0 mm 0.00 in0.0 mm
07:35 PM 15.1°F-9.4°C 12.4°F-10.9°C 63% Calm Calm -- 30.10 in1019.3 mb 0.00 in0.0 mm 0.00 in0.0 mm 0.00 in0.0 mm
07:38 PM 14.8°F-9.6°C 12.8°F-10.7°C 63% 2.4 mph ESE3.9 kmh ESE 2.4 mph3.9 kmh 30.10 in1019.3 mb 0.00 in0.0 mm 0.00 in0.0 mm 0.00 in0.0 mm
07:41 PM 14.7°F-9.6°C 12.6°F-10.8°C 63% 4.8 mph ESE7.7 kmh ESE 4.9 mph7.9 kmh 30.10 in1019.3 mb 0.00 in0.0 mm 0.00 in0.0 mm 0.00 in0.0 mm
07:44 PM 15.0°F-9.4°C 12.4°F-10.9°C 63% 0.4 mph ESE0.6 kmh ESE 0.4 mph0.6 kmh 30.10 in1019.3 mb 0.00 in0.0 mm 0.00 in0.0 mm 0.00 in0.0 mm
07:47 PM 14.8°F-9.6°C 12.4°F-10.9°C 63% Calm Calm -- 30.10 in1019.3 mb 0.00 in0.0 mm 0.00 in0.0 mm 0.00 in0.0 mm
07:50 PM 14.3°F-9.8°C 13.0°F-10.6°C 64% Calm Calm -- 30.09 in1019.0 mb 0.00 in0.0 mm 0.00 in0.0 mm 0.00 in0.0 mm
07:53 PM 14.5°F-9.7°C 12.7°F-10.7°C 63% 4.4 mph ESE7.1 kmh ESE 4.4 mph7.1 kmh 30.10 in1019.3 mb 0.00 in0.0 mm 0.00 in0.0 mm 0.00 in0.0 mm
07:56 PM 14.6°F-9.7°C 12.5°F-10.8°C 63% 6.7 mph E10.8 kmh E 6.8 mph10.9 kmh 30.10 in1019.3 mb 0.00 in0.0 mm 0.00 in0.0 mm 0.00 in0.0 mm
07:59 PM 14.5°F-9.7°C 12.7°F-10.7°C 63% 5.5 mph E8.9 kmh E 5.5 mph8.9 kmh 30.10 in1019.3 mb 0.00 in0.0 mm 0.00 in0.0 mm 0.00 in0.0 mm
08:02 PM 14.2°F-9.9°C 12.8°F-10.7°C 64% 2.4 mph E3.9 kmh E 2.4 mph3.9 kmh 30.09 in1019.0 mb 0.00 in0.0 mm 0.00 in0.0 mm 0.00 in0.0 mm
08:05 PM 14.3°F-9.8°C 12.8°F-10.7°C 64% 3.6 mph ESE5.8 kmh ESE 3.6 mph5.8 kmh 30.09 in1019.0 mb 0.00 in0.0 mm 0.00 in0.0 mm 0.00 in0.0 mm
08:08 PM 14.3°F-9.8°C 12.9°F-10.6°C 64% 2.0 mph ESE3.2 kmh ESE 2.0 mph3.2 kmh 30.08 in1018.6 mb 0.00 in0.0 mm 0.00 in0.0 mm 0.00 in0.0 mm
08:11 PM 14.2°F-9.9°C 12.8°F-10.7°C 63% 1.6 mph ESE2.6 kmh ESE 1.6 mph2.6 kmh 30.08 in1018.6 mb 0.00 in0.0 mm 0.00 in0.0 mm 0.00 in0.0 mm
08:14 PM 14.2°F-9.9°C 12.6°F-10.8°C 63% Calm Calm -- 30.08 in1018.6 mb 0.00 in0.0 mm 0.00 in0.0 mm 0.00 in0.0 mm
08:17 PM 14.2°F-9.9°C 12.8°F-10.7°C 64% 2.4 mph ESE3.9 kmh ESE 2.4 mph3.9 kmh 30.08 in1018.6 mb 0.00 in0.0 mm 0.00 in0.0 mm 0.00 in0.0 mm
08:23 PM 13.9°F-10.1°C 12.7°F-10.7°C 64% 1.6 mph NNW2.6 kmh NNW 1.6 mph2.6 kmh 30.08 in1018.6 mb 0.00 in0.0 mm 0.00 in0.0 mm 0.00 in0.0 mm
08:26 PM 13.9°F-10.1°C 12.9°F-10.6°C 64% Calm Calm -- 30.08 in1018.6 mb 0.00 in0.0 mm 0.00 in0.0 mm 0.00 in0.0 mm
08:29 PM 14.1°F-9.9°C 12.5°F-10.8°C 64% 4.1 mph E6.6 kmh E 4.1 mph6.6 kmh 30.08 in1018.6 mb 0.00 in0.0 mm 0.00 in0.0 mm 0.00 in0.0 mm
08:32 PM 14.5°F-9.7°C 12.6°F-10.8°C 64% 4.7 mph ESE7.6 kmh ESE 4.7 mph7.6 kmh 30.08 in1018.6 mb 0.00 in0.0 mm 0.00 in0.0 mm 0.00 in0.0 mm
08:35 PM 14.2°F-9.9°C 12.6°F-10.8°C 64% Calm Calm -- 30.07 in1018.3 mb 0.00 in0.0 mm 0.00 in0.0 mm 0.00 in0.0 mm
08:38 PM 14.5°F-9.7°C 12.6°F-10.8°C 64% 1.6 mph ESE2.6 kmh ESE 1.6 mph2.6 kmh 30.07 in1018.3 mb 0.00 in0.0 mm 0.00 in0.0 mm 0.00 in0.0 mm
08:41 PM 14.3°F-9.8°C 12.4°F-10.9°C 64% Calm Calm -- 30.07 in1018.3 mb 0.00 in0.0 mm 0.00 in0.0 mm 0.00 in0.0 mm
08:44 PM 14.7°F-9.6°C 12.2°F-11.0°C 65% 9.1 mph SE14.6 kmh SE 9.1 mph14.6 kmh 30.07 in1018.3 mb 0.00 in0.0 mm 0.00 in0.0 mm 0.00 in0.0 mm
08:47 PM 14.6°F-9.7°C 12.2°F-11.0°C 65% 1.2 mph E1.9 kmh E 1.2 mph1.9 kmh 30.07 in1018.3 mb 0.00 in0.0 mm 0.00 in0.0 mm 0.00 in0.0 mm
08:50 PM 14.5°F-9.7°C 12.5°F-10.8°C 65% 0.4 mph ESE0.6 kmh ESE 0.4 mph0.6 kmh 30.07 in1018.3 mb 0.00 in0.0 mm 0.00 in0.0 mm 0.00 in0.0 mm
08:53 PM 14.8°F-9.6°C 12.1°F-11.1°C 65% 5.5 mph ESE8.9 kmh ESE 5.5 mph8.9 kmh 30.07 in1018.3 mb 0.00 in0.0 mm 0.00 in0.0 mm 0.00 in0.0 mm
08:56 PM 14.6°F-9.7°C 12.5°F-10.8°C 65% 5.3 mph E8.5 kmh E 5.3 mph8.5 kmh 30.07 in1018.3 mb 0.00 in0.0 mm 0.00 in0.0 mm 0.00 in0.0 mm
08:59 PM 14.8°F-9.6°C 12.5°F-10.8°C 65% 4.4 mph SE7.1 kmh SE 4.4 mph7.1 kmh 30.07 in1018.3 mb 0.00 in0.0 mm 0.00 in0.0 mm 0.00 in0.0 mm
09:02 PM 14.7°F-9.6°C 12.0°F-11.1°C 65% 7.6 mph ESE12.2 kmh ESE 7.7 mph12.4 kmh 30.07 in1018.3 mb 0.00 in0.0 mm 0.00 in0.0 mm 0.00 in0.0 mm
09:05 PM 14.8°F-9.6°C 11.9°F-11.2°C 64% 3.6 mph ESE5.8 kmh ESE 3.6 mph5.8 kmh 30.07 in1018.3 mb 0.00 in0.0 mm 0.00 in0.0 mm 0.00 in0.0 mm
09:08 PM 14.7°F-9.6°C 12.3°F-10.9°C 65% 4.0 mph E6.4 kmh E 4.1 mph6.6 kmh 30.07 in1018.3 mb 0.00 in0.0 mm 0.00 in0.0 mm 0.00 in0.0 mm
09:11 PM 14.7°F-9.6°C 12.1°F-11.1°C 65% 10.3 mph ESE16.6 kmh ESE 10.4 mph16.7 kmh 30.07 in1018.3 mb 0.00 in0.0 mm 0.00 in0.0 mm 0.00 in0.0 mm
09:14 PM 15.1°F-9.4°C 11.9°F-11.2°C 65% 6.0 mph ESE9.7 kmh ESE 6.0 mph9.7 kmh 30.06 in1017.9 mb 0.00 in0.0 mm 0.00 in0.0 mm 0.00 in0.0 mm
09:17 PM 15.0°F-9.4°C 11.7°F-11.3°C 65% 8.1 mph ESE13.0 kmh ESE 8.1 mph13.0 kmh 30.07 in1018.3 mb 0.00 in0.0 mm 0.00 in0.0 mm 0.00 in0.0 mm
09:20 PM 14.8°F-9.6°C 12.1°F-11.1°C 65% 4.0 mph NNW6.4 kmh NNW 4.0 mph6.4 kmh 30.07 in1018.3 mb 0.00 in0.0 mm 0.00 in0.0 mm 0.00 in0.0 mm
09:23 PM 14.8°F-9.6°C 12.2°F-11.0°C 65% 5.6 mph E9.0 kmh E 5.7 mph9.2 kmh 30.07 in1018.3 mb 0.00 in0.0 mm 0.00 in0.0 mm 0.00 in0.0 mm
09:26 PM 14.8°F-9.6°C 11.8°F-11.2°C 65% Calm Calm -- 30.07 in1018.3 mb 0.00 in0.0 mm 0.00 in0.0 mm 0.00 in0.0 mm
09:29 PM 14.5°F-9.7°C 12.5°F-10.8°C 65% 6.8 mph SE10.9 kmh SE 6.8 mph10.9 kmh 30.07 in1018.3 mb 0.00 in0.0 mm 0.00 in0.0 mm 0.00 in0.0 mm
09:32 PM 14.5°F-9.7°C 12.3°F-10.9°C 66% 2.7 mph NNW4.3 kmh NNW 2.8 mph4.5 kmh 30.07 in1018.3 mb 0.00 in0.0 mm 0.00 in0.0 mm 0.00 in0.0 mm
09:35 PM 14.5°F-9.7°C 12.1°F-11.1°C 66% 4.0 mph E6.4 kmh E 4.1 mph6.6 kmh 30.07 in1018.3 mb 0.00 in0.0 mm 0.00 in0.0 mm 0.00 in0.0 mm
09:38 PM 14.6°F-9.7°C 11.6°F-11.3°C 66% 4.9 mph SE7.9 kmh SE 4.9 mph7.9 kmh 30.07 in1018.3 mb 0.00 in0.0 mm 0.00 in0.0 mm 0.00 in0.0 mm
09:41 PM 14.3°F-9.8°C 12.1°F-11.1°C 66% 0.8 mph ESE1.3 kmh ESE 0.8 mph1.3 kmh 30.07 in1018.3 mb 0.00 in0.0 mm 0.00 in0.0 mm 0.00 in0.0 mm
09:44 PM 14.2°F-9.9°C 11.9°F-11.2°C 66% 9.1 mph ESE14.6 kmh ESE 9.2 mph14.8 kmh 30.07 in1018.3 mb 0.00 in0.0 mm 0.00 in0.0 mm 0.00 in0.0 mm
09:47 PM 14.2°F-9.9°C 12.2°F-11.0°C 66% 2.3 mph NNW3.7 kmh NNW 2.4 mph3.9 kmh 30.07 in1018.3 mb 0.00 in0.0 mm 0.00 in0.0 mm 0.00 in0.0 mm
09:50 PM 14.3°F-9.8°C 12.0°F-11.1°C 66% 5.0 mph SE8.0 kmh SE 5.0 mph8.0 kmh 30.07 in1018.3 mb 0.00 in0.0 mm 0.00 in0.0 mm 0.00 in0.0 mm
09:53 PM 14.1°F-9.9°C 12.3°F-10.9°C 66% 8.4 mph ESE13.5 kmh ESE 8.4 mph13.5 kmh 30.07 in1018.3 mb 0.00 in0.0 mm 0.00 in0.0 mm 0.00 in0.0 mm
09:56 PM 14.2°F-9.9°C 11.8°F-11.2°C 66% 4.0 mph E6.4 kmh E 4.1 mph6.6 kmh 30.07 in1018.3 mb 0.00 in0.0 mm 0.00 in0.0 mm 0.00 in0.0 mm
09:59 PM 14.3°F-9.8°C 12.2°F-11.0°C 66% 3.2 mph SE5.1 kmh SE 3.2 mph5.1 kmh 30.07 in1018.3 mb 0.00 in0.0 mm 0.00 in0.0 mm 0.00 in0.0 mm
10:02 PM 14.2°F-9.9°C 11.8°F-11.2°C 66% 9.2 mph ESE14.8 kmh ESE 9.2 mph14.8 kmh 30.06 in1017.9 mb 0.00 in0.0 mm 0.00 in0.0 mm 0.00 in0.0 mm
10:05 PM 14.3°F-9.8°C 11.8°F-11.2°C 66% 3.2 mph SSE5.1 kmh SSE 3.3 mph5.3 kmh 30.06 in1017.9 mb 0.00 in0.0 mm 0.00 in0.0 mm 0.00 in0.0 mm
10:08 PM 14.3°F-9.8°C 11.9°F-11.2°C 67% 7.1 mph E11.4 kmh E 7.2 mph11.6 kmh 30.06 in1017.9 mb 0.00 in0.0 mm 0.00 in0.0 mm 0.00 in0.0 mm
10:11 PM 14.2°F-9.9°C 11.9°F-11.2°C 66% 2.8 mph ESE4.5 kmh ESE 2.8 mph4.5 kmh 30.05 in1017.6 mb 0.00 in0.0 mm 0.00 in0.0 mm 0.00 in0.0 mm
10:14 PM 14.1°F-9.9°C 12.0°F-11.1°C 67% 4.8 mph SE7.7 kmh SE 4.9 mph7.9 kmh 30.05 in1017.6 mb 0.00 in0.0 mm 0.00 in0.0 mm 0.00 in0.0 mm
10:17 PM 14.3°F-9.8°C 11.9°F-11.2°C 67% 8.9 mph ESE14.3 kmh ESE 8.9 mph14.3 kmh 30.05 in1017.6 mb 0.00 in0.0 mm 0.00 in0.0 mm 0.00 in0.0 mm
10:20 PM 14.2°F-9.9°C 12.0°F-11.1°C 67% 5.8 mph SE9.3 kmh SE 5.8 mph9.3 kmh 30.05 in1017.6 mb 0.00 in0.0 mm 0.00 in0.0 mm 0.00 in0.0 mm
10:23 PM 14.2°F-9.9°C 11.4°F-11.4°C 67% 5.6 mph SE9.0 kmh SE 5.6 mph9.0 kmh 30.05 in1017.6 mb 0.00 in0.0 mm 0.00 in0.0 mm 0.00 in0.0 mm
10:29 PM 14.2°F-9.9°C 11.5°F-11.4°C 66% 5.7 mph SE9.2 kmh SE 5.7 mph9.2 kmh 30.05 in1017.6 mb 0.00 in0.0 mm 0.00 in0.0 mm 0.00 in0.0 mm
10:32 PM 14.1°F-9.9°C 11.7°F-11.3°C 67% 4.0 mph ESE6.4 kmh ESE 4.1 mph6.6 kmh 30.05 in1017.6 mb 0.00 in0.0 mm 0.00 in0.0 mm 0.00 in0.0 mm
10:35 PM 14.0°F-10.0°C 11.8°F-11.2°C 67% 0.4 mph E0.6 kmh E 0.4 mph0.6 kmh 30.05 in1017.6 mb 0.00 in0.0 mm 0.00 in0.0 mm 0.00 in0.0 mm
10:38 PM 14.0°F-10.0°C 11.9°F-11.2°C 67% 5.1 mph SSE8.2 kmh SSE 5.2 mph8.4 kmh 30.05 in1017.6 mb 0.00 in0.0 mm 0.00 in0.0 mm 0.00 in0.0 mm
10:41 PM 13.9°F-10.1°C 11.7°F-11.3°C 66% 3.2 mph SE5.1 kmh SE 3.2 mph5.1 kmh 30.05 in1017.6 mb 0.00 in0.0 mm 0.00 in0.0 mm 0.00 in0.0 mm
10:44 PM 13.8°F-10.1°C 12.0°F-11.1°C 67% 2.0 mph E3.2 kmh E 2.0 mph3.2 kmh 30.05 in1017.6 mb 0.00 in0.0 mm 0.00 in0.0 mm 0.00 in0.0 mm
10:47 PM 14.1°F-9.9°C 11.6°F-11.3°C 67% 4.4 mph SE7.1 kmh SE 4.5 mph7.2 kmh 30.05 in1017.6 mb 0.00 in0.0 mm 0.00 in0.0 mm 0.00 in0.0 mm
10:50 PM 14.1°F-9.9°C 11.6°F-11.3°C 67% 9.2 mph NNW14.8 kmh NNW 9.3 mph15.0 kmh 30.05 in1017.6 mb 0.00 in0.0 mm 0.00 in0.0 mm 0.00 in0.0 mm
10:53 PM 13.9°F-10.1°C 12.1°F-11.1°C 67% 2.8 mph ESE4.5 kmh ESE 2.8 mph4.5 kmh 30.05 in1017.6 mb 0.00 in0.0 mm 0.00 in0.0 mm 0.00 in0.0 mm
10:56 PM 13.9°F-10.1°C 11.8°F-11.2°C 67% Calm Calm -- 30.05 in1017.6 mb 0.00 in0.0 mm 0.00 in0.0 mm 0.00 in0.0 mm
10:59 PM 14.1°F-9.9°C 11.6°F-11.3°C 67% 4.0 mph NE6.4 kmh NE 4.0 mph6.4 kmh 30.05 in1017.6 mb 0.00 in0.0 mm 0.00 in0.0 mm 0.00 in0.0 mm
11:02 PM 14.1°F-9.9°C 11.5°F-11.4°C 67% 4.0 mph SE6.4 kmh SE 4.1 mph6.6 kmh 30.05 in1017.6 mb 0.00 in0.0 mm 0.00 in0.0 mm 0.00 in0.0 mm
11:05 PM 14.1°F-9.9°C 11.3°F-11.5°C 67% 3.1 mph NE5.0 kmh NE 3.2 mph5.1 kmh 30.05 in1017.6 mb 0.00 in0.0 mm 0.00 in0.0 mm 0.00 in0.0 mm
11:08 PM 14.0°F-10.0°C 11.9°F-11.2°C 67% 8.6 mph E13.8 kmh E 8.7 mph14.0 kmh 30.04 in1017.3 mb 0.00 in0.0 mm 0.00 in0.0 mm 0.00 in0.0 mm
11:11 PM 14.0°F-10.0°C 11.9°F-11.2°C 67% 2.0 mph SE3.2 kmh SE 2.0 mph3.2 kmh 30.04 in1017.3 mb 0.00 in0.0 mm 0.00 in0.0 mm 0.00 in0.0 mm
11:14 PM 13.9°F-10.1°C 11.4°F-11.4°C 67% 3.2 mph NNW5.1 kmh NNW 3.2 mph5.1 kmh 30.04 in1017.3 mb 0.00 in0.0 mm 0.00 in0.0 mm 0.00 in0.0 mm
11:17 PM 14.1°F-9.9°C 11.6°F-11.3°C 67% 4.4 mph SE7.1 kmh SE 4.4 mph7.1 kmh 30.04 in1017.3 mb 0.00 in0.0 mm 0.00 in0.0 mm 0.00 in0.0 mm
11:20 PM 14.1°F-9.9°C 11.8°F-11.2°C 67% 6.7 mph SSE10.8 kmh SSE 6.7 mph10.8 kmh 30.04 in1017.3 mb 0.00 in0.0 mm 0.00 in0.0 mm 0.00 in0.0 mm
11:23 PM 14.2°F-9.9°C 11.5°F-11.4°C 67% 2.0 mph SE3.2 kmh SE 2.0 mph3.2 kmh 30.03 in1016.9 mb 0.00 in0.0 mm 0.00 in0.0 mm 0.00 in0.0 mm
11:26 PM 14.1°F-9.9°C 11.6°F-11.3°C 67% 1.6 mph SE2.6 kmh SE 1.6 mph2.6 kmh 30.04 in1017.3 mb 0.00 in0.0 mm 0.00 in0.0 mm 0.00 in0.0 mm
11:29 PM 14.1°F-9.9°C 11.5°F-11.4°C 67% 7.7 mph E12.4 kmh E 7.7 mph12.4 kmh 30.03 in1016.9 mb 0.00 in0.0 mm 0.00 in0.0 mm 0.00 in0.0 mm
11:32 PM 14.1°F-9.9°C 11.6°F-11.3°C 67% 7.7 mph E12.4 kmh E 7.7 mph12.4 kmh 30.03 in1016.9 mb 0.00 in0.0 mm 0.00 in0.0 mm 0.00 in0.0 mm
11:35 PM 14.0°F-10.0°C 11.7°F-11.3°C 67% 4.4 mph SE7.1 kmh SE 4.5 mph7.2 kmh 30.03 in1016.9 mb 0.00 in0.0 mm 0.00 in0.0 mm 0.00 in0.0 mm
11:38 PM 14.0°F-10.0°C 11.7°F-11.3°C 67% 1.6 mph ENE2.6 kmh ENE 1.6 mph2.6 kmh 30.03 in1016.9 mb 0.00 in0.0 mm 0.00 in0.0 mm 0.00 in0.0 mm
11:44 PM 13.9°F-10.1°C 11.7°F-11.3°C 67% 1.6 mph E2.6 kmh E 1.6 mph2.6 kmh 30.03 in1016.9 mb 0.00 in0.0 mm 0.00 in0.0 mm 0.00 in0.0 mm
11:47 PM 13.9°F-10.1°C 11.6°F-11.3°C 67% 6.8 mph SE10.9 kmh SE 6.9 mph11.1 kmh 30.03 in1016.9 mb 0.00 in0.0 mm 0.00 in0.0 mm 0.00 in0.0 mm
11:50 PM 13.9°F-10.1°C 11.7°F-11.3°C 68% 2.0 mph ESE3.2 kmh ESE 2.0 mph3.2 kmh 30.03 in1016.9 mb 0.00 in0.0 mm 0.00 in0.0 mm 0.00 in0.0 mm
11:53 PM 14.0°F-10.0°C 11.5°F-11.4°C 68% 3.6 mph SSE5.8 kmh SSE 3.7 mph6.0 kmh 30.03 in1016.9 mb 0.00 in0.0 mm 0.00 in0.0 mm 0.00 in0.0 mm
11:56 PM 13.9°F-10.1°C 11.4°F-11.4°C 67% 3.2 mph ESE5.1 kmh ESE 3.2 mph5.1 kmh 30.03 in1016.9 mb 0.00 in0.0 mm 0.00 in0.0 mm 0.00 in0.0 mm
11:59 PM 13.9°F-10.1°C 11.7°F-11.3°C 67% 2.8 mph ESE4.5 kmh ESE 2.8 mph4.5 kmh 30.03 in1016.9 mb 0.00 in0.0 mm 0.00 in0.0 mm 0.00 in0.0 mm